USGS Flow Graphs:

Purgatoire River at Madrid,CO
Purgatoire River below Trinidad Lake


Provisional Data Disclaimer

Real time data available on this website are provisional data that have not been reviewed or edited. These data may be subject to significant change and are not citeable until reviewed and approved by Tetra Tech.


Home

From 01-Jan-2017 00:00 To 24-Nov-2017 18:50

Time Series Table

Date/Time MST SFPR-0.1-pH SFPR-0.1-Temperature SFPR-0.1-Conductivity SFPR-0.1-Chloride PR-37.1-pH PR-37.1-Temperature PR-37.1-Conductivity PR-37.1-Chloride WET-0.3-pH WET-0.3-Temperature WET-0.3-Conductivity WET-0.3-Chloride PR-16.9-pH PR-16.9-Temperature PR-16.9-Conductivity PR-16.9-Chloride LOR-0.2-pH LOR-0.2-Temperature LOR-0.2-Conductivity LOR-0.2-Chloride PR-24.9-pH PR-24.9-Temperature PR-24.9-Conductivity PR-24.9-Chloride SAR-0.4-pH SAR-0.4-Temperature SAR-0.4-Conductivity SAR-0.4-Chloride PR-8.8-pH PR-8.8-Temperature PR-8.8-Conductivity PR-8.8-Chloride LOR-0.2-Discharge PR-16.9-Discharge PR-24.9-Discharge PR-37.1-Discharge SAR-0.4-Discharge SFPR-0.1-Discharge WET-0.3-Discharge REI-1.4-pH REI-1.4-Temperature REI-1.4-Conductivity REI-1.4-Chloride REI-1.4-Discharge PR-8.8-SAR PR-16.9-SAR PR-24.9-SAR
24-Nov-2017 18:00 - - - - - - - - - - - - - - - - - - - - - - - - - - - - 8.75 7.30 546.00 25.33 - - - - - - - - - - - - 2.93 - -
24-Nov-2017 17:45 - - - - - - - - - - - - - - - - - - - - - - - - - - - - 8.75 7.41 546.00 25.33 - - - - - - - - - - - - 2.93 - -
24-Nov-2017 17:30 - - - - - - - - - - - - - - - - - - - - - - - - - - - - 8.76 7.52 546.00 25.33 - - - - - - - - - - - - 2.93 - -
24-Nov-2017 17:15 - - - - - - - - - - - - - - - - - - - - - - - - - - - - 8.76 7.62 547.00 25.40 - - - - - - - - - - - - 2.93 - -
24-Nov-2017 17:00 - - - - - - - - - - - - - - - - - - - - - - - - - - - - 8.77 7.71 547.00 25.40 - - - - - - - - - - - - 2.93 - -
24-Nov-2017 16:45 - - - - - - - - - - - - - - - - - - - - - - - - - - - - 8.77 7.80 547.00 25.40 - - - - - - - - - - - - 2.93 - -
24-Nov-2017 16:30 - - - - - - - - - - - - - - - - - - - - - - - - - - - - 8.77 7.91 547.00 25.40 - - - - - - - - - - - - 2.93 - -
24-Nov-2017 16:15 - - - - - - - - - - - - - - - - - - - - - - - - - - - - 8.77 8.05 547.00 25.40 - - - - - - - - - - - - 2.93 - -
24-Nov-2017 16:00 - - - - - - - - - - - - - - - - - - - - - - - - - - - - 8.78 8.20 548.00 25.47 - - - - - - - - - - - - 2.94 - -
24-Nov-2017 15:45 - - - - - - - - - - - - - - - - - - - - - - - - - - - - 8.78 8.34 547.00 25.40 - - - - - - - - - - - - 2.93 - -
24-Nov-2017 15:30 - - - - - - - - - - - - - - - - - - - - - - - - - - - - 8.77 8.46 547.00 25.40 - - - - - - - - - - - - 2.93 - -
24-Nov-2017 15:15 - - - - - - - - - - - - - - - - - - - - - - - - - - - - 8.77 8.55 548.00 25.47 - - - - - - - - - - - - 2.94 - -
24-Nov-2017 15:00 - - - - - - - - - - - - 8.20 13.69 472.00 20.30 - - - - - - - - - - - - 8.76 8.58 548.00 25.47 - 31.51 - - - - - - - - - - 2.94 2.39 -
24-Nov-2017 14:45 - - - - - - - - - - - - 8.21 13.59 470.00 20.16 - - - - - - - - - - - - 8.75 8.55 547.00 25.40 - 29.76 - - - - - - - - - - 2.93 2.38 -
24-Nov-2017 14:30 - - - - - - - - - - - - 8.20 13.31 469.00 20.10 - - - - - - - - - - - - 8.74 8.45 547.00 25.40 - 31.51 - - - - - - - - - - 2.93 2.37 -
24-Nov-2017 14:15 - - - - - - - - - - - - 8.20 12.85 469.00 20.10 - - - - - - - - - - - - 8.74 8.30 547.00 25.40 - 31.51 - - - - - - - - - - 2.93 2.37 -
24-Nov-2017 14:00 - - - - - - - - - - - - 8.18 12.22 470.00 20.16 - - - - - - - - - - - - 8.74 8.07 547.00 25.40 - 31.51 - - - - - - - - - - 2.93 2.38 -
24-Nov-2017 13:45 - - - - - - - - - - - - 8.16 11.59 473.00 20.37 - - - - - - - - - - - - 8.74 7.70 547.00 25.40 - 31.51 - - - - - - - - - - 2.93 2.40 -
24-Nov-2017 13:30 - - - - - - - - - - - - 8.15 11.23 473.00 20.37 - - - - - - - - - - - - 8.74 7.52 546.00 25.33 - 31.51 - - - - - - - - - - 2.93 2.40 -
24-Nov-2017 13:15 - - - - - - - - - - - - 8.14 10.83 475.00 20.50 - - - - - - - - - - - - 8.73 7.42 547.00 25.40 - 31.51 - - - - - - - - - - 2.93 2.41 -
24-Nov-2017 13:00 - - - - - - - - - - - - 8.16 10.50 476.00 20.57 - - - - - - - - - - - - 8.73 7.31 546.00 25.33 - 31.51 - - - - - - - - - - 2.93 2.42 -
24-Nov-2017 12:45 - - - - - - - - - - - - 8.15 10.28 476.00 20.57 - - - - - - - - - - - - 8.73 7.16 547.00 25.40 - 31.51 - - - - - - - - - - 2.93 2.42 -
24-Nov-2017 12:30 - - - - - - - - - - - - 8.14 10.10 475.00 20.50 - - - - - - - - - - - - 8.73 7.05 547.00 25.40 - 31.51 - - - - - - - - - - 2.93 2.41 -
24-Nov-2017 12:15 - - - - - - - - - - - - 8.13 9.91 474.00 20.44 - - - - - - - - - - - - 8.73 6.84 545.00 25.26 - 31.51 - - - - - - - - - - 2.92 2.40 -
24-Nov-2017 12:00 - - - - - - - - - - - - 8.12 9.60 473.00 20.37 - - - - - - - - - - - - 8.73 6.54 546.00 25.33 - 31.51 - - - - - - - - - - 2.93 2.40 -
24-Nov-2017 11:45 - - - - - - - - - - - - 8.11 9.09 473.00 20.37 - - - - - - - - - - - - 8.73 6.39 546.00 25.33 - 31.51 - - - - - - - - - - 2.93 2.40 -
24-Nov-2017 11:30 - - - - - - - - - - - - 8.11 8.43 476.00 20.57 - - - - - - - - - - - - 8.72 6.12 545.00 25.26 - 29.76 - - - - - - - - - - 2.92 2.42 -
24-Nov-2017 11:15 - - - - - - - - - - - - 8.11 7.92 478.00 20.71 - - - - - - - - - - - - 8.72 5.88 545.00 25.26 - 31.51 - - - - - - - - - - 2.92 2.43 -
24-Nov-2017 11:00 - - - - - - - - - - - - 8.12 7.47 479.00 20.78 - - - - - - - - - - - - 8.72 5.65 545.00 25.26 - 31.51 - - - - - - - - - - 2.92 2.44 -
24-Nov-2017 10:45 - - - - - - - - - - - - 8.11 7.12 479.00 20.78 - - - - - - - - - - - - 8.71 5.40 545.00 25.26 - 31.51 - - - - - - - - - - 2.92 2.44 -
24-Nov-2017 10:30 - - - - - - - - - - - - 8.10 6.79 478.00 20.71 - - - - - - - - - - - - 8.71 5.14 545.00 25.26 - 29.76 - - - - - - - - - - 2.92 2.43 -
24-Nov-2017 10:15 - - - - - - - - - - - - 8.12 6.45 478.00 20.71 - - - - - - - - - - - - 8.71 4.85 545.00 25.26 - 29.76 - - - - - - - - - - 2.92 2.43 -
24-Nov-2017 10:00 - - - - - - - - - - - - 8.12 6.12 478.00 20.71 - - - - - - - - - - - - 8.71 4.58 545.00 25.26 - 29.76 - - - - - - - - - - 2.92 2.43 -
24-Nov-2017 09:45 - - - - - - - - - - - - 8.13 5.75 477.00 20.64 - - - - - - - - - - - - 8.70 4.30 545.00 25.26 - 29.76 - - - - - - - - - - 2.92 2.42 -
24-Nov-2017 09:30 - - - - - - - - - - - - 8.12 5.26 479.00 20.78 - - - - - - - - - - - - 8.70 4.08 545.00 25.26 - 29.76 - - - - - - - - - - 2.92 2.44 -
24-Nov-2017 09:15 - - - - - - - - - - - - 8.11 4.58 481.00 20.91 - - - - - - - - - - - - 8.70 3.87 545.00 25.26 - 29.76 - - - - - - - - - - 2.92 2.45 -
24-Nov-2017 09:00 - - - - - - - - - - - - 8.12 3.52 493.00 21.73 - - - - - - - - - - - - 8.69 3.64 544.00 25.20 - 29.76 - - - - - - - - - - 2.91 2.53 -
24-Nov-2017 08:45 - - - - - - - - - - - - 8.14 3.25 493.00 21.73 - - - - - - - - - - - - 8.69 3.48 544.00 25.20 - 29.76 - - - - - - - - - - 2.91 2.53 -
24-Nov-2017 08:30 - - - - - - - - - - - - 8.14 2.93 494.00 21.80 - - - - - - - - - - - - 8.68 3.41 544.00 25.20 - 28.09 - - - - - - - - - - 2.91 2.53 -
24-Nov-2017 08:15 - - - - - - - - - - - - 8.14 2.72 495.00 21.86 - - - - - - - - - - - - 8.68 3.31 544.00 25.20 - 28.09 - - - - - - - - - - 2.91 2.54 -
24-Nov-2017 08:00 - - - - - - - - - - - - - - - - - - - - - - - - - - - - 8.67 3.28 545.00 25.26 - - - - - - - - - - - - 2.92 - -
24-Nov-2017 07:45 - - - - - - - - - - - - - - - - - - - - - - - - - - - - 8.67 3.28 545.00 25.26 - - - - - - - - - - - - 2.92 - -
24-Nov-2017 07:30 - - - - - - - - - - - - - - - - - - - - - - - - - - - - 8.67 3.30 545.00 25.26 - - - - - - - - - - - - 2.92 - -
24-Nov-2017 07:15 - - - - - - - - - - - - - - - - - - - - - - - - - - - - 8.67 3.32 545.00 25.26 - - - - - - - - - - - - 2.92 - -
24-Nov-2017 07:00 - - - - - - - - - - - - - - - - - - - - - - - - - - - - 8.66 3.35 545.00 25.26 - - - - - - - - - - - - 2.92 - -
24-Nov-2017 06:45 - - - - - - - - - - - - - - - - - - - - - - - - - - - - 8.66 3.41 545.00 25.26 - - - - - - - - - - - - 2.92 - -
24-Nov-2017 06:30 - - - - - - - - - - - - - - - - - - - - - - - - - - - - 8.67 3.47 545.00 25.26 - - - - - - - - - - - - 2.92 - -
24-Nov-2017 06:15 - - - - - - - - - - - - - - - - - - - - - - - - - - - - 8.66 3.51 544.00 25.20 - - - - - - - - - - - - 2.91 - -
24-Nov-2017 06:00 - - - - - - - - - - - - - - - - - - - - - - - - - - - - 8.66 3.55 544.00 25.20 - - - - - - - - - - - - 2.91 - -
24-Nov-2017 05:45 - - - - - - - - - - - - - - - - - - - - - - - - - - - - 8.66 3.57 544.00 25.20 - - - - - - - - - - - - 2.91 - -
24-Nov-2017 05:30 - - - - - - - - - - - - - - - - - - - - - - - - - - - - 8.66 3.62 544.00 25.20 - - - - - - - - - - - - 2.91 - -
24-Nov-2017 05:15 - - - - - - - - - - - - - - - - - - - - - - - - - - - - 8.66 3.67 545.00 25.26 - - - - - - - - - - - - 2.92 - -
24-Nov-2017 05:00 - - - - - - - - - - - - - - - - - - - - - - - - - - - - 8.67 3.72 544.00 25.20 - - - - - - - - - - - - 2.91 - -
24-Nov-2017 04:45 - - - - - - - - - - - - - - - - - - - - - - - - - - - - 8.67 3.79 545.00 25.26 - - - - - - - - - - - - 2.92 - -
24-Nov-2017 04:30 - - - - - - - - - - - - - - - - - - - - - - - - - - - - 8.67 3.85 544.00 25.20 - - - - - - - - - - - - 2.91 - -
24-Nov-2017 04:15 - - - - - - - - - - - - - - - - - - - - - - - - - - - - 8.67 3.90 544.00 25.20 - - - - - - - - - - - - 2.91 - -
24-Nov-2017 04:00 - - - - - - - - - - - - - - - - - - - - - - - - - - - - 8.67 3.96 545.00 25.26 - - - - - - - - - - - - 2.92 - -
24-Nov-2017 03:45 - - - - - - - - - - - - - - - - - - - - - - - - - - - - 8.67 4.02 544.00 25.20 - - - - - - - - - - - - 2.91 - -
24-Nov-2017 03:30 - - - - - - - - - - - - - - - - - - - - - - - - - - - - 8.66 4.07 544.00 25.20 - - - - - - - - - - - - 2.91 - -
24-Nov-2017 03:15 - - - - - - - - - - - - - - - - - - - - - - - - - - - - 8.67 4.13 544.00 25.20 - - - - - - - - - - - - 2.91 - -
24-Nov-2017 03:00 - - - - - - - - - - - - - - - - - - - - - - - - - - - - 8.67 4.19 543.00 25.13 - - - - - - - - - - - - 2.91 - -
24-Nov-2017 02:45 - - - - - - - - - - - - - - - - - - - - - - - - - - - - 8.67 4.26 543.00 25.13 - - - - - - - - - - - - 2.91 - -
24-Nov-2017 02:30 - - - - - - - - - - - - - - - - - - - - - - - - - - - - 8.67 4.33 543.00 25.13 - - - - - - - - - - - - 2.91 - -
24-Nov-2017 02:15 - - - - - - - - - - - - - - - - - - - - - - - - - - - - 8.67 4.40 542.00 25.06 - - - - - - - - - - - - 2.90 - -
24-Nov-2017 02:00 - - - - - - - - - - - - - - - - - - - - - - - - - - - - 8.67 4.49 542.00 25.06 - - - - - - - - - - - - 2.90 - -
24-Nov-2017 01:45 - - - - - - - - - - - - - - - - - - - - - - - - - - - - 8.67 4.57 542.00 25.06 - - - - - - - - - - - - 2.90 - -
24-Nov-2017 01:30 - - - - - - - - - - - - - - - - - - - - - - - - - - - - 8.68 4.65 542.00 25.06 - - - - - - - - - - - - 2.90 - -
24-Nov-2017 01:15 - - - - - - - - - - - - - - - - - - - - - - - - - - - - 8.68 4.71 542.00 25.06 - - - - - - - - - - - - 2.90 - -
24-Nov-2017 01:00 - - - - - - - - - - - - - - - - - - - - - - - - - - - - 8.69 4.76 541.00 24.99 - - - - - - - - - - - - 2.89 - -
24-Nov-2017 00:45 - - - - - - - - - - - - - - - - - - - - - - - - - - - - 8.68 4.82 541.00 24.99 - - - - - - - - - - - - 2.89 - -
24-Nov-2017 00:30 - - - - - - - - - - - - - - - - - - - - - - - - - - - - 8.69 4.88 541.00 24.99 - - - - - - - - - - - - 2.89 - -
24-Nov-2017 00:15 - - - - - - - - - - - - - - - - - - - - - - - - - - - - 8.69 4.93 540.00 24.92 - - - - - - - - - - - - 2.89 - -
24-Nov-2017 00:00 - - - - - - - - - - - - - - - - - - - - - - - - - - - - 8.69 5.00 541.00 24.99 - - - - - - - - - - - - 2.89 - -
23-Nov-2017 23:45 - - - - - - - - - - - - - - - - - - - - - - - - - - - - 8.69 5.05 540.00 24.92 - - - - - - - - - - - - 2.89 - -
23-Nov-2017 23:30 - - - - - - - - - - - - - - - - - - - - - - - - - - - - 8.70 5.10 541.00 24.99 - - - - - - - - - - - - 2.89 - -
23-Nov-2017 23:15 - - - - - - - - - - - - - - - - - - - - - - - - - - - - 8.70 5.16 540.00 24.92 - - - - - - - - - - - - 2.89 - -
23-Nov-2017 23:00 - - - - - - - - - - - - - - - - - - - - - - - - - - - - 8.70 5.21 540.00 24.92 - - - - - - - - - - - - 2.89 - -
23-Nov-2017 22:45 - - - - - - - - - - - - - - - - - - - - - - - - - - - - 8.70 5.28 541.00 24.99 - - - - - - - - - - - - 2.89 - -
23-Nov-2017 22:30 - - - - - - - - - - - - - - - - - - - - - - - - - - - - 8.70 5.38 540.00 24.92 - - - - - - - - - - - - 2.89 - -
23-Nov-2017 22:15 - - - - - - - - - - - - - - - - - - - - - - - - - - - - 8.71 5.49 541.00 24.99 - - - - - - - - - - - - 2.89 - -
23-Nov-2017 22:00 - - - - - - - - - - - - - - - - - - - - - - - - - - - - 8.71 5.60 541.00 24.99 - - - - - - - - - - - - 2.89 - -
23-Nov-2017 21:45 - - - - - - - - - - - - - - - - - - - - - - - - - - - - 8.71 5.70 540.00 24.92 - - - - - - - - - - - - 2.89 - -
23-Nov-2017 21:30 - - - - - - - - - - - - - - - - - - - - - - - - - - - - 8.71 5.81 541.00 24.99 - - - - - - - - - - - - 2.89 - -
23-Nov-2017 21:15 - - - - - - - - - - - - - - - - - - - - - - - - - - - - 8.72 5.92 541.00 24.99 - - - - - - - - - - - - 2.89 - -
23-Nov-2017 21:00 - - - - - - - - - - - - - - - - - - - - - - - - - - - - 8.72 6.04 542.00 25.06 - - - - - - - - - - - - 2.90 - -
23-Nov-2017 20:45 - - - - - - - - - - - - - - - - - - - - - - - - - - - - 8.72 6.15 542.00 25.06 - - - - - - - - - - - - 2.90 - -
23-Nov-2017 20:30 - - - - - - - - - - - - - - - - - - - - - - - - - - - - 8.73 6.24 541.00 24.99 - - - - - - - - - - - - 2.89 - -
23-Nov-2017 20:15 - - - - - - - - - - - - - - - - - - - - - - - - - - - - 8.73 6.33 542.00 25.06 - - - - - - - - - - - - 2.90 - -
23-Nov-2017 20:00 - - - - - - - - - - - - - - - - - - - - - - - - - - - - 8.73 6.43 542.00 25.06 - - - - - - - - - - - - 2.90 - -
23-Nov-2017 19:45 - - - - - - - - - - - - - - - - - - - - - - - - - - - - 8.73 6.55 542.00 25.06 - - - - - - - - - - - - 2.90 - -
23-Nov-2017 19:30 - - - - - - - - - - - - - - - - - - - - - - - - - - - - 8.73 6.66 542.00 25.06 - - - - - - - - - - - - 2.90 - -
23-Nov-2017 19:15 - - - - - - - - - - - - - - - - - - - - - - - - - - - - 8.74 6.78 542.00 25.06 - - - - - - - - - - - - 2.90 - -
23-Nov-2017 19:00 - - - - - - - - - - - - - - - - - - - - - - - - - - - - 8.74 6.90 542.00 25.06 - - - - - - - - - - - - 2.90 - -
23-Nov-2017 18:45 - - - - - - - - - - - - - - - - - - - - - - - - - - - - 8.74 7.01 542.00 25.06 - - - - - - - - - - - - 2.90 - -
23-Nov-2017 18:30 - - - - - - - - - - - - - - - - - - - - - - - - - - - - 8.74 7.11 542.00 25.06 - - - - - - - - - - - - 2.90 - -
23-Nov-2017 18:15 - - - - - - - - - - - - - - - - - - - - - - - - - - - - 8.74 7.23 542.00 25.06 - - - - - - - - - - - - 2.90 - -
23-Nov-2017 18:00 - - - - - - - - - - - - - - - - - - - - - - - - - - - - 8.75 7.35 542.00 25.06 - - - - - - - - - - - - 2.90 - -
23-Nov-2017 17:45 - - - - - - - - - - - - - - - - - - - - - - - - - - - - 8.75 7.45 542.00 25.06 - - - - - - - - - - - - 2.90 - -
23-Nov-2017 17:30 - - - - - - - - - - - - - - - - - - - - - - - - - - - - 8.76 7.56 542.00 25.06 - - - - - - - - - - - - 2.90 - -
23-Nov-2017 17:15 - - - - - - - - - - - - - - - - - - - - - - - - - - - - 8.76 7.65 542.00 25.06 - - - - - - - - - - - - 2.90 - -
23-Nov-2017 17:00 - - - - - - - - - - - - - - - - - - - - - - - - - - - - 8.76 7.74 542.00 25.06 - - - - - - - - - - - - 2.90 - -
23-Nov-2017 16:45 - - - - - - - - - - - - - - - - - - - - - - - - - - - - 8.76 7.81 542.00 25.06 - - - - - - - - - - - - 2.90 - -
23-Nov-2017 16:30 - - - - - - - - - - - - - - - - - - - - - - - - - - - - 8.76 7.90 542.00 25.06 - - - - - - - - - - - - 2.90 - -
23-Nov-2017 16:15 - - - - - - - - - - - - - - - - - - - - - - - - - - - - 8.77 7.98 543.00 25.13 - - - - - - - - - - - - 2.91 - -
23-Nov-2017 16:00 - - - - - - - - - - - - - - - - - - - - - - - - - - - - 8.76 8.10 542.00 25.06 - - - - - - - - - - - - 2.90 - -
23-Nov-2017 15:45 - - - - - - - - - - - - - - - - - - - - - - - - - - - - 8.77 8.22 543.00 25.13 - - - - - - - - - - - - 2.91 - -
23-Nov-2017 15:30 - - - - - - - - - - - - - - - - - - - - - - - - - - - - 8.76 8.29 543.00 25.13 - - - - - - - - - - - - 2.91 - -
23-Nov-2017 15:15 - - - - - - - - - - - - - - - - - - - - - - - - - - - - 8.76 8.34 543.00 25.13 - - - - - - - - - - - - 2.91 - -
23-Nov-2017 15:00 - - - - - - - - - - - - 8.12 15.40 471.00 20.23 - - - - - - - - - - - - 8.75 8.37 543.00 25.13 - 31.51 - - - - - - - - - - 2.91 2.38 -
23-Nov-2017 14:45 - - - - - - - - - - - - 8.14 15.41 469.00 20.10 - - - - - - - - - - - - 8.73 8.36 543.00 25.13 - 31.51 - - - - - - - - - - 2.91 2.37 -
23-Nov-2017 14:30 - - - - - - - - - - - - 8.17 15.29 468.00 20.03 - - - - - - - - - - - - 8.73 8.29 543.00 25.13 - 31.51 - - - - - - - - - - 2.91 2.36 -
23-Nov-2017 14:15 - - - - - - - - - - - - 8.18 15.07 466.00 19.89 - - - - - - - - - - - - 8.72 8.17 543.00 25.13 - 31.51 - - - - - - - - - - 2.91 2.35 -
23-Nov-2017 14:00 - - - - - - - - - - - - 8.19 14.73 466.00 19.89 - - - - - - - - - - - - 8.72 8.01 543.00 25.13 - 31.51 - - - - - - - - - - 2.91 2.35 -
23-Nov-2017 13:45 - - - - - - - - - - - - 8.20 14.34 465.00 19.82 - - - - - - - - - - - - 8.72 7.81 543.00 25.13 - 31.51 - - - - - - - - - - 2.91 2.34 -
23-Nov-2017 13:30 - - - - - - - - - - - - 8.19 13.91 466.00 19.89 - - - - - - - - - - - - 8.72 7.57 543.00 25.13 - 31.51 - - - - - - - - - - 2.91 2.35 -
23-Nov-2017 13:15 - - - - - - - - - - - - 8.19 13.64 466.00 19.89 - - - - - - - - - - - - 8.71 7.33 543.00 25.13 - 31.51 - - - - - - - - - - 2.91 2.35 -
23-Nov-2017 13:00 - - - - - - - - - - - - 8.19 13.51 464.00 19.76 - - - - - - - - - - - - 8.71 7.17 543.00 25.13 - 33.34 - - - - - - - - - - 2.91 2.34 -
23-Nov-2017 12:45 - - - - - - - - - - - - 8.19 13.12 463.00 19.69 - - - - - - - - - - - - 8.71 6.91 542.00 25.06 - 31.51 - - - - - - - - - - 2.90 2.33 -
23-Nov-2017 12:30 - - - - - - - - - - - - 8.19 12.48 462.00 19.62 - - - - - - - - - - - - 8.71 6.58 542.00 25.06 - 31.51 - - - - - - - - - - 2.90 2.32 -
23-Nov-2017 12:15 - - - - - - - - - - - - 8.17 11.50 460.00 19.48 - - - - - - - - - - - - 8.71 6.19 541.00 24.99 - 31.51 - - - - - - - - - - 2.89 2.31 -
23-Nov-2017 12:00 - - - - - - - - - - - - 8.14 10.26 462.00 19.62 - - - - - - - - - - - - 8.71 5.83 541.00 24.99 - 31.51 - - - - - - - - - - 2.89 2.32 -
23-Nov-2017 11:45 - - - - - - - - - - - - 8.12 9.02 464.00 19.76 - - - - - - - - - - - - 8.71 5.57 541.00 24.99 - 31.51 - - - - - - - - - - 2.89 2.34 -
23-Nov-2017 11:30 - - - - - - - - - - - - 8.12 7.66 470.00 20.16 - - - - - - - - - - - - 8.71 5.32 541.00 24.99 - 31.51 - - - - - - - - - - 2.89 2.38 -
23-Nov-2017 11:15 - - - - - - - - - - - - 8.12 6.67 475.00 20.50 - - - - - - - - - - - - 8.71 5.06 541.00 24.99 - 31.51 - - - - - - - - - - 2.89 2.41 -
23-Nov-2017 11:00 - - - - - - - - - - - - 8.11 6.00 476.00 20.57 - - - - - - - - - - - - 8.71 4.73 542.00 25.06 - 31.51 - - - - - - - - - - 2.90 2.42 -
23-Nov-2017 10:45 - - - - - - - - - - - - 8.10 5.41 478.00 20.71 - - - - - - - - - - - - 8.71 4.43 541.00 24.99 - 31.51 - - - - - - - - - - 2.89 2.43 -
23-Nov-2017 10:30 - - - - - - - - - - - - 8.08 4.91 478.00 20.71 - - - - - - - - - - - - 8.71 4.16 541.00 24.99 - 29.76 - - - - - - - - - - 2.89 2.43 -
23-Nov-2017 10:15 - - - - - - - - - - - - 8.07 4.37 481.00 20.91 - - - - - - - - - - - - 8.70 3.99 541.00 24.99 - 29.76 - - - - - - - - - - 2.89 2.45 -
23-Nov-2017 10:00 - - - - - - - - - - - - 8.06 3.58 489.00 21.46 - - - - - - - - - - - - 8.70 3.81 541.00 24.99 - 29.76 - - - - - - - - - - 2.89 2.50 -
23-Nov-2017 09:45 - - - - - - - - - - - - 8.06 3.39 489.00 21.46 - - - - - - - - - - - - 8.69 3.61 540.00 24.92 - 29.76 - - - - - - - - - - 2.89 2.50 -
23-Nov-2017 09:30 - - - - - - - - - - - - 7.99 3.16 490.00 21.52 - - - - - - - - - - - - 8.69 3.42 540.00 24.92 - 29.76 - - - - - - - - - - 2.89 2.51 -
23-Nov-2017 09:15 - - - - - - - - - - - - - - - - - - - - - - - - - - - - 8.69 3.26 541.00 24.99 - - - - - - - - - - - - 2.89 - -
23-Nov-2017 09:00 - - - - - - - - - - - - - - - - - - - - - - - - - - - - 8.69 3.13 541.00 24.99 - - - - - - - - - - - - 2.89 - -
23-Nov-2017 08:45 - - - - - - - - - - - - - - - - - - - - - - - - - - - - 8.68 2.99 540.00 24.92 - - - - - - - - - - - - 2.89 - -
23-Nov-2017 08:30 - - - - - - - - - - - - - - - - - - - - - - - - - - - - 8.67 2.86 540.00 24.92 - - - - - - - - - - - - 2.89 - -
23-Nov-2017 08:15 - - - - - - - - - - - - - - - - - - - - - - - - - - - - 8.67 2.77 540.00 24.92 - - - - - - - - - - - - 2.89 - -
23-Nov-2017 08:00 - - - - - - - - - - - - - - - - - - - - - - - - - - - - 8.67 2.68 540.00 24.92 - - - - - - - - - - - - 2.89 - -
23-Nov-2017 07:45 - - - - - - - - - - - - - - - - - - - - - - - - - - - - 8.66 2.61 540.00 24.92 - - - - - - - - - - - - 2.89 - -
23-Nov-2017 07:30 - - - - - - - - - - - - - - - - - - - - - - - - - - - - 8.66 2.58 540.00 24.92 - - - - - - - - - - - - 2.89 - -
23-Nov-2017 07:15 - - - - - - - - - - - - - - - - - - - - - - - - - - - - 8.66 2.58 540.00 24.92 - - - - - - - - - - - - 2.89 - -
23-Nov-2017 07:00 - - - - - - - - - - - - - - - - - - - - - - - - - - - - 8.66 2.61 540.00 24.92 - - - - - - - - - - - - 2.89 - -
23-Nov-2017 06:45 - - - - - - - - - - - - - - - - - - - - - - - - - - - - 8.66 2.64 541.00 24.99 - - - - - - - - - - - - 2.89 - -
23-Nov-2017 06:30 - - - - - - - - - - - - - - - - - - - - - - - - - - - - 8.66 2.69 541.00 24.99 - - - - - - - - - - - - 2.89 - -
23-Nov-2017 06:15 - - - - - - - - - - - - - - - - - - - - - - - - - - - - 8.66 2.74 541.00 24.99 - - - - - - - - - - - - 2.89 - -
23-Nov-2017 06:00 - - - - - - - - - - - - - - - - - - - - - - - - - - - - 8.66 2.79 542.00 25.06 - - - - - - - - - - - - 2.90 - -
23-Nov-2017 05:45 - - - - - - - - - - - - - - - - - - - - - - - - - - - - 8.67 2.84 543.00 25.13 - - - - - - - - - - - - 2.91 - -
23-Nov-2017 05:30 - - - - - - - - - - - - - - - - - - - - - - - - - - - - 8.66 2.88 543.00 25.13 - - - - - - - - - - - - 2.91 - -
23-Nov-2017 05:15 - - - - - - - - - - - - - - - - - - - - - - - - - - - - 8.67 2.92 544.00 25.20 - - - - - - - - - - - - 2.91 - -
23-Nov-2017 05:00 - - - - - - - - - - - - - - - - - - - - - - - - - - - - 8.67 2.95 544.00 25.20 - - - - - - - - - - - - 2.91 - -
23-Nov-2017 04:45 - - - - - - - - - - - - - - - - - - - - - - - - - - - - 8.67 2.98 544.00 25.20 - - - - - - - - - - - - 2.91 - -
23-Nov-2017 04:30 - - - - - - - - - - - - - - - - - - - - - - - - - - - - 8.67 3.02 543.00 25.13 - - - - - - - - - - - - 2.91 - -
23-Nov-2017 04:15 - - - - - - - - - - - - - - - - - - - - - - - - - - - - 8.66 3.05 543.00 25.13 - - - - - - - - - - - - 2.91 - -
23-Nov-2017 04:00 - - - - - - - - - - - - - - - - - - - - - - - - - - - - 8.67 3.08 542.00 25.06 - - - - - - - - - - - - 2.90 - -
23-Nov-2017 03:45 - - - - - - - - - - - - - - - - - - - - - - - - - - - - 8.67 3.11 542.00 25.06 - - - - - - - - - - - - 2.90 - -
23-Nov-2017 03:30 - - - - - - - - - - - - - - - - - - - - - - - - - - - - 8.67 3.14 541.00 24.99 - - - - - - - - - - - - 2.89 - -
23-Nov-2017 03:15 - - - - - - - - - - - - - - - - - - - - - - - - - - - - 8.67 3.19 541.00 24.99 - - - - - - - - - - - - 2.89 - -
23-Nov-2017 03:00 - - - - - - - - - - - - - - - - - - - - - - - - - - - - 8.67 3.22 542.00 25.06 - - - - - - - - - - - - 2.90 - -
23-Nov-2017 02:45 - - - - - - - - - - - - - - - - - - - - - - - - - - - - 8.67 3.26 542.00 25.06 - - - - - - - - - - - - 2.90 - -
23-Nov-2017 02:30 - - - - - - - - - - - - - - - - - - - - - - - - - - - - 8.67 3.32 542.00 25.06 - - - - - - - - - - - - 2.90 - -
23-Nov-2017 02:15 - - - - - - - - - - - - - - - - - - - - - - - - - - - - 8.67 3.39 542.00 25.06 - - - - - - - - - - - - 2.90 - -
23-Nov-2017 02:00 - - - - - - - - - - - - - - - - - - - - - - - - - - - - 8.68 3.47 542.00 25.06 - - - - - - - - - - - - 2.90 - -
23-Nov-2017 01:45 - - - - - - - - - - - - - - - - - - - - - - - - - - - - 8.68 3.55 542.00 25.06 - - - - - - - - - - - - 2.90 - -
23-Nov-2017 01:30 - - - - - - - - - - - - - - - - - - - - - - - - - - - - 8.68 3.64 542.00 25.06 - - - - - - - - - - - - 2.90 - -
23-Nov-2017 01:15 - - - - - - - - - - - - - - - - - - - - - - - - - - - - 8.68 3.73 542.00 25.06 - - - - - - - - - - - - 2.90 - -
23-Nov-2017 01:00 - - - - - - - - - - - - - - - - - - - - - - - - - - - - 8.69 3.81 541.00 24.99 - - - - - - - - - - - - 2.89 - -
23-Nov-2017 00:45 - - - - - - - - - - - - - - - - - - - - - - - - - - - - 8.69 3.89 541.00 24.99 - - - - - - - - - - - - 2.89 - -
23-Nov-2017 00:30 - - - - - - - - - - - - - - - - - - - - - - - - - - - - 8.69 3.97 542.00 25.06 - - - - - - - - - - - - 2.90 - -
23-Nov-2017 00:15 - - - - - - - - - - - - - - - - - - - - - - - - - - - - 8.69 4.05 541.00 24.99 - - - - - - - - - - - - 2.89 - -
23-Nov-2017 00:00 - - - - - - - - - - - - - - - - - - - - - - - - - - - - 8.69 4.12 541.00 24.99 - - - - - - - - - - - - 2.89 - -
22-Nov-2017 23:45 - - - - - - - - - - - - - - - - - - - - - - - - - - - - 8.69 4.18 541.00 24.99 - - - - - - - - - - - - 2.89 - -
22-Nov-2017 23:30 - - - - - - - - - - - - - - - - - - - - - - - - - - - - 8.70 4.26 541.00 24.99 - - - - - - - - - - - - 2.89 - -
22-Nov-2017 23:15 - - - - - - - - - - - - - - - - - - - - - - - - - - - - 8.70 4.33 541.00 24.99 - - - - - - - - - - - - 2.89 - -
22-Nov-2017 23:00 - - - - - - - - - - - - - - - - - - - - - - - - - - - - 8.70 4.40 541.00 24.99 - - - - - - - - - - - - 2.89 - -
22-Nov-2017 22:45 - - - - - - - - - - - - - - - - - - - - - - - - - - - - 8.70 4.48 541.00 24.99 - - - - - - - - - - - - 2.89 - -
22-Nov-2017 22:30 - - - - - - - - - - - - - - - - - - - - - - - - - - - - 8.70 4.55 542.00 25.06 - - - - - - - - - - - - 2.90 - -
22-Nov-2017 22:15 - - - - - - - - - - - - - - - - - - - - - - - - - - - - 8.71 4.64 542.00 25.06 - - - - - - - - - - - - 2.90 - -
22-Nov-2017 22:00 - - - - - - - - - - - - - - - - - - - - - - - - - - - - 8.71 4.72 542.00 25.06 - - - - - - - - - - - - 2.90 - -
22-Nov-2017 21:45 - - - - - - - - - - - - - - - - - - - - - - - - - - - - 8.71 4.79 542.00 25.06 - - - - - - - - - - - - 2.90 - -
22-Nov-2017 21:30 - - - - - - - - - - - - - - - - - - - - - - - - - - - - 8.71 4.87 542.00 25.06 - - - - - - - - - - - - 2.90 - -
22-Nov-2017 21:15 - - - - - - - - - - - - - - - - - - - - - - - - - - - - 8.71 4.95 542.00 25.06 - - - - - - - - - - - - 2.90 - -
22-Nov-2017 21:00 - - - - - - - - - - - - 8.33 5.69 481.00 20.91 - - - - - - - - - - - - 8.71 5.04 541.00 0.00 - 28.09 - - - - - - - - - - 2.89 2.45 -
22-Nov-2017 20:45 - - - - - - - - - - - - 8.34 5.81 482.00 20.98 - - - - - - - - - - - - 8.72 5.12 541.00 24.99 - 28.09 - - - - - - - - - - 2.89 2.46 -
22-Nov-2017 20:30 - - - - - - - - - - - - 8.34 5.94 482.00 20.98 - - - - - - - - - - - - 8.72 5.20 541.00 24.99 - 28.09 - - - - - - - - - - 2.89 2.46 -
22-Nov-2017 20:15 - - - - - - - - - - - - 8.34 6.08 483.00 21.05 - - - - - - - - - - - - 8.72 5.29 542.00 25.06 - 28.09 - - - - - - - - - - 2.90 2.46 -
22-Nov-2017 20:00 - - - - - - - - - - - - 8.34 6.25 483.00 21.05 - - - - - - - - - - - - 8.72 5.37 541.00 24.99 - 28.09 - - - - - - - - - - 2.89 2.46 -
22-Nov-2017 19:45 - - - - - - - - - - - - 8.36 6.41 484.00 21.12 - - - - - - - - - - - - 8.73 5.45 542.00 25.06 - 28.09 - - - - - - - - - - 2.90 2.47 -
22-Nov-2017 19:30 - - - - - - - - - - - - 8.36 6.59 486.00 21.25 - - - - - - - - - - - - 8.73 5.54 543.00 25.13 - 28.09 - - - - - - - - - - 2.91 2.48 -
22-Nov-2017 19:15 - - - - - - - - - - - - 8.35 6.80 488.00 21.39 - - - - - - - - - - - - 8.73 5.62 542.00 25.06 - 28.09 - - - - - - - - - - 2.90 2.49 -
22-Nov-2017 19:00 - - - - - - - - - - - - 8.34 7.03 490.00 21.52 - - - - - - - - - - - - 8.74 5.71 542.00 25.06 - 28.09 - - - - - - - - - - 2.90 2.51 -
22-Nov-2017 18:45 - - - - - - - - - - - - 8.34 7.31 491.00 21.59 - - - - - - - - - - - - 8.74 5.79 542.00 25.06 - 28.09 - - - - - - - - - - 2.90 2.51 -
22-Nov-2017 18:30 - - - - - - - - - - - - 8.33 7.61 491.00 21.59 - - - - - - - - - - - - 8.74 5.89 542.00 25.06 - 28.09 - - - - - - - - - - 2.90 2.51 -
22-Nov-2017 18:15 - - - - - - - - - - - - 8.33 7.96 490.00 21.52 - - - - - - - - - - - - 8.74 5.98 542.00 25.06 - 28.09 - - - - - - - - - - 2.90 2.51 -
22-Nov-2017 18:00 - - - - - - - - - - - - 8.35 8.35 490.00 21.52 - - - - - - - - - - - - 8.75 6.09 543.00 25.13 - 24.97 - - - - - - - - - - 2.91 2.51 -
22-Nov-2017 17:45 - - - - - - - - - - - - 8.36 8.78 490.00 21.52 - - - - - - - - - - - - 8.75 6.20 542.00 25.06 - 26.50 - - - - - - - - - - 2.90 2.51 -
22-Nov-2017 17:30 - - - - - - - - - - - - 8.37 9.25 489.00 21.46 - - - - - - - - - - - - 8.75 6.30 543.00 25.13 - 28.09 - - - - - - - - - - 2.91 2.50 -
22-Nov-2017 17:15 - - - - - - - - - - - - 8.36 9.75 487.00 21.32 - - - - - - - - - - - - 8.75 6.40 542.00 25.06 - 29.76 - - - - - - - - - - 2.90 2.49 -
22-Nov-2017 17:00 - - - - - - - - - - - - 8.35 10.27 483.00 21.05 - - - - - - - - - - - - 8.75 6.50 542.00 25.06 - 29.76 - - - - - - - - - - 2.90 2.46 -
22-Nov-2017 16:45 - - - - - - - - - - - - 8.32 10.83 478.00 20.71 - - - - - - - - - - - - 8.76 6.58 542.00 25.06 - 29.76 - - - - - - - - - - 2.90 2.43 -
22-Nov-2017 16:30 - - - - - - - - - - - - 8.26 11.37 474.00 20.44 - - - - - - - - - - - - 8.76 6.67 543.00 25.13 - 29.76 - - - - - - - - - - 2.91 2.40 -
22-Nov-2017 16:15 - - - - - - - - - - - - 8.24 11.87 473.00 20.37 - - - - - - - - - - - - 8.76 6.75 542.00 25.06 - 29.76 - - - - - - - - - - 2.90 2.40 -
22-Nov-2017 16:00 - - - - - - - - - - - - 8.24 12.26 475.00 20.50 - - - - - - - - - - - - 8.75 6.82 543.00 25.13 - 29.76 - - - - - - - - - - 2.91 2.41 -
22-Nov-2017 15:45 - - - - - - - - - - - - 8.23 12.56 477.00 20.64 - - - - - - - - - - - - 8.75 6.86 542.00 25.06 - 29.76 - - - - - - - - - - 2.90 2.42 -
22-Nov-2017 15:30 - - - - - - - - - - - - 8.21 12.79 478.00 20.71 - - - - - - - - - - - - 8.75 6.93 542.00 25.06 - 29.76 - - - - - - - - - - 2.90 2.43 -
22-Nov-2017 15:15 - - - - - - - - - - - - 8.21 12.93 477.00 20.64 - - - - - - - - - - - - 8.75 6.96 542.00 25.06 - 29.76 - - - - - - - - - - 2.90 2.42 -
22-Nov-2017 15:00 - - - - - - - - - - - - 8.22 12.97 476.00 20.57 - - - - - - - - - - - - 8.74 6.96 543.00 25.13 - 29.76 - - - - - - - - - - 2.91 2.42 -
22-Nov-2017 14:45 - - - - - - - - - - - - 8.24 12.93 475.00 20.50 - - - - - - - - - - - - 8.73 6.96 543.00 25.13 - 29.76 - - - - - - - - - - 2.91 2.41 -
22-Nov-2017 14:30 - - - - - - - - - - - - 8.22 12.89 473.00 20.37 - - - - - - - - - - - - 8.73 6.95 543.00 25.13 - 31.51 - - - - - - - - - - 2.91 2.40 -
22-Nov-2017 14:15 - - - - - - - - - - - - 8.23 12.65 472.00 20.30 - - - - - - - - - - - - 8.72 6.83 543.00 25.13 - 31.51 - - - - - - - - - - 2.91 2.39 -
22-Nov-2017 14:00 - - - - - - - - - - - - 8.23 12.23 472.00 20.30 - - - - - - - - - - - - 8.72 6.75 543.00 25.13 - 31.51 - - - - - - - - - - 2.91 2.39 -
22-Nov-2017 13:45 - - - - - - - - - - - - 8.23 11.87 473.00 20.37 - - - - - - - - - - - - 8.72 6.59 543.00 25.13 - 29.76 - - - - - - - - - - 2.91 2.40 -
22-Nov-2017 13:30 - - - - - - - - - - - - 8.22 11.77 473.00 20.37 - - - - - - - - - - - - 8.72 6.37 543.00 25.13 - 31.51 - - - - - - - - - - 2.91 2.40 -
22-Nov-2017 13:15 - - - - - - - - - - - - 8.19 11.90 472.00 20.30 - - - - - - - - - - - - 8.71 6.20 543.00 25.13 - 31.51 - - - - - - - - - - 2.91 2.39 -
22-Nov-2017 13:00 - - - - - - - - - - - - 8.17 12.03 470.00 20.16 - - - - - - - - - - - - 8.71 6.04 543.00 25.13 - 31.51 - - - - - - - - - - 2.91 2.38 -
22-Nov-2017 12:45 - - - - - - - - - - - - 8.17 12.13 469.00 20.10 - - - - - - - - - - - - 8.70 5.93 543.00 25.13 - 31.51 - - - - - - - - - - 2.91 2.37 -
22-Nov-2017 12:30 - - - - - - - - - - - - 8.18 12.22 468.00 20.03 - - - - - - - - - - - - 8.70 5.81 543.00 25.13 - 31.51 - - - - - - - - - - 2.91 2.36 -
22-Nov-2017 12:15 - - - - - - - - - - - - 8.18 12.17 466.00 19.89 - - - - - - - - - - - - 8.70 5.61 542.00 25.06 - 31.51 - - - - - - - - - - 2.90 2.35 -
22-Nov-2017 12:00 - - - - - - - - - - - - 8.18 11.96 465.00 19.82 - - - - - - - - - - - - 8.70 5.30 542.00 25.06 - 31.51 - - - - - - - - - - 2.90 2.34 -
22-Nov-2017 11:45 - - - - - - - - - - - - 8.18 11.62 462.00 19.62 - - - - - - - - - - - - 8.69 4.93 541.00 24.99 - 31.51 - - - - - - - - - - 2.89 2.32 -
22-Nov-2017 11:30 - - - - - - - - - - - - 8.18 11.07 457.00 19.28 - - - - - - - - - - - - 8.69 4.75 539.00 24.86 - 31.51 - - - - - - - - - - 2.88 2.29 -
22-Nov-2017 11:15 - - - - - - - - - - - - 8.16 10.00 457.00 19.28 - - - - - - - - - - - - 8.69 4.37 539.00 24.86 - 31.51 - - - - - - - - - - 2.88 2.29 -
22-Nov-2017 11:00 - - - - - - - - - - - - 8.14 8.88 456.00 19.21 - - - - - - - - - - - - 8.69 3.99 539.00 24.86 - 31.51 - - - - - - - - - - 2.88 2.28 -
22-Nov-2017 10:45 - - - - - - - - - - - - 8.13 7.61 456.00 19.21 - - - - - - - - - - - - 8.69 3.72 539.00 24.86 - 31.51 - - - - - - - - - - 2.88 2.28 -
22-Nov-2017 10:30 - - - - - - - - - - - - 8.12 6.02 462.00 19.62 - - - - - - - - - - - - 8.69 3.45 539.00 24.86 - 31.51 - - - - - - - - - - 2.88 2.32 -
22-Nov-2017 10:15 - - - - - - - - - - - - 8.13 4.27 474.00 20.44 - - - - - - - - - - - - 8.69 3.07 539.00 24.86 - 31.51 - - - - - - - - - - 2.88 2.40 -
22-Nov-2017 10:00 - - - - - - - - - - - - 8.13 3.15 486.00 21.25 - - - - - - - - - - - - 8.68 2.77 539.00 24.86 - 29.76 - - - - - - - - - - 2.88 2.48 -
22-Nov-2017 09:45 - - - - - - - - - - - - 8.14 2.66 487.00 21.32 - - - - - - - - - - - - 8.68 2.51 539.00 24.86 - 29.76 - - - - - - - - - - 2.88 2.49 -
22-Nov-2017 09:30 - - - - - - - - - - - - 8.13 2.24 490.00 21.52 - - - - - - - - - - - - 8.68 2.31 539.00 24.86 - 29.76 - - - - - - - - - - 2.88 2.51 -
22-Nov-2017 09:15 - - - - - - - - - - - - 8.13 1.94 491.00 21.59 - - - - - - - - - - - - 8.67 2.13 538.00 24.79 - 29.76 - - - - - - - - - - 2.88 2.51 -
22-Nov-2017 09:00 - - - - - - - - - - - - - - - - - - - - - - - - - - - - 8.67 1.94 538.00 24.79 - - - - - - - - - - - - 2.88 - -
22-Nov-2017 08:45 - - - - - - - - - - - - - - - - - - - - - - - - - - - - 8.67 1.81 538.00 24.79 - - - - - - - - - - - - 2.88 - -
22-Nov-2017 08:30 - - - - - - - - - - - - - - - - - - - - - - - - - - - - 8.67 1.73 538.00 24.79 - - - - - - - - - - - - 2.88 - -
22-Nov-2017 08:15 - - - - - - - - - - - - - - - - - - - - - - - - - - - - 8.66 1.65 537.00 24.72 - - - - - - - - - - - - 2.87 - -
22-Nov-2017 08:00 - - - - - - - - - - - - - - - - - - - - - - - - - - - - 8.66 1.60 537.00 24.72 - - - - - - - - - - - - 2.87 - -
22-Nov-2017 07:45 - - - - - - - - - - - - - - - - - - - - - - - - - - - - 8.66 1.56 538.00 24.79 - - - - - - - - - - - - 2.88 - -
22-Nov-2017 07:30 - - - - - - - - - - - - - - - - - - - - - - - - - - - - 8.65 1.55 537.00 24.72 - - - - - - - - - - - - 2.87 - -
22-Nov-2017 07:15 - - - - - - - - - - - - - - - - - - - - - - - - - - - - 8.65 1.57 538.00 24.79 - - - - - - - - - - - - 2.88 - -
22-Nov-2017 07:00 - - - - - - - - - - - - - - - - - - - - - - - - - - - - 8.65 1.60 538.00 24.79 - - - - - - - - - - - - 2.88 - -
22-Nov-2017 06:45 - - - - - - - - - - - - - - - - - - - - - - - - - - - - 8.65 1.65 538.00 24.79 - - - - - - - - - - - - 2.88 - -
22-Nov-2017 06:30 - - - - - - - - - - - - - - - - - - - - - - - - - - - - 8.65 1.71 537.00 24.72 - - - - - - - - - - - - 2.87 - -
22-Nov-2017 06:15 - - - - - - - - - - - - - - - - - - - - - - - - - - - - 8.65 1.77 537.00 24.72 - - - - - - - - - - - - 2.87 - -
22-Nov-2017 06:00 - - - - - - - - - - - - - - - - - - - - - - - - - - - - 8.65 1.83 538.00 24.79 - - - - - - - - - - - - 2.88 - -
22-Nov-2017 05:45 - - - - - - - - - - - - - - - - - - - - - - - - - - - - 8.66 1.88 537.00 24.72 - - - - - - - - - - - - 2.87 - -
22-Nov-2017 05:30 - - - - - - - - - - - - - - - - - - - - - - - - - - - - 8.66 1.93 537.00 24.72 - - - - - - - - - - - - 2.87 - -
22-Nov-2017 05:15 - - - - - - - - - - - - - - - - - - - - - - - - - - - - 8.66 1.98 537.00 24.72 - - - - - - - - - - - - 2.87 - -
22-Nov-2017 05:00 - - - - - - - - - - - - - - - - - - - - - - - - - - - - 8.65 2.03 537.00 24.72 - - - - - - - - - - - - 2.87 - -
22-Nov-2017 04:45 - - - - - - - - - - - - - - - - - - - - - - - - - - - - 8.66 2.10 537.00 24.72 - - - - - - - - - - - - 2.87 - -
22-Nov-2017 04:30 - - - - - - - - - - - - - - - - - - - - - - - - - - - - 8.66 2.16 538.00 24.79 - - - - - - - - - - - - 2.88 - -
22-Nov-2017 04:15 - - - - - - - - - - - - - - - - - - - - - - - - - - - - 8.66 2.22 537.00 24.72 - - - - - - - - - - - - 2.87 - -
22-Nov-2017 04:00 - - - - - - - - - - - - - - - - - - - - - - - - - - - - 8.66 2.24 537.00 24.72 - - - - - - - - - - - - 2.87 - -
22-Nov-2017 03:45 - - - - - - - - - - - - - - - - - - - - - - - - - - - - 8.66 2.26 537.00 24.72 - - - - - - - - - - - - 2.87 - -
22-Nov-2017 03:30 - - - - - - - - - - - - - - - - - - - - - - - - - - - - 8.66 2.31 537.00 24.72 - - - - - - - - - - - - 2.87 - -
22-Nov-2017 03:15 - - - - - - - - - - - - - - - - - - - - - - - - - - - - 8.66 2.37 536.00 24.65 - - - - - - - - - - - - 2.86 - -
22-Nov-2017 03:00 - - - - - - - - - - - - - - - - - - - - - - - - - - - - 8.66 2.41 536.00 24.65 - - - - - - - - - - - - 2.86 - -
22-Nov-2017 02:45 - - - - - - - - - - - - - - - - - - - - - - - - - - - - 8.66 2.45 535.00 24.58 - - - - - - - - - - - - 2.86 - -
22-Nov-2017 02:30 - - - - - - - - - - - - - - - - - - - - - - - - - - - - 8.66 2.50 535.00 24.58 - - - - - - - - - - - - 2.86 - -
22-Nov-2017 02:15 - - - - - - - - - - - - - - - - - - - - - - - - - - - - 8.67 2.54 535.00 24.58 - - - - - - - - - - - - 2.86 - -
22-Nov-2017 02:00 - - - - - - - - - - - - - - - - - - - - - - - - - - - - 8.67 2.59 535.00 24.58 - - - - - - - - - - - - 2.86 - -
22-Nov-2017 01:45 - - - - - - - - - - - - - - - - - - - - - - - - - - - - 8.67 2.67 534.00 24.52 - - - - - - - - - - - - 2.85 - -
22-Nov-2017 01:30 - - - - - - - - - - - - - - - - - - - - - - - - - - - - 8.67 2.76 534.00 24.52 - - - - - - - - - - - - 2.85 - -
22-Nov-2017 01:15 - - - - - - - - - - - - - - - - - - - - - - - - - - - - 8.68 2.86 533.00 24.45 - - - - - - - - - - - - 2.84 - -
22-Nov-2017 01:00 - - - - - - - - - - - - - - - - - - - - - - - - - - - - 8.68 2.97 533.00 24.45 - - - - - - - - - - - - 2.84 - -
22-Nov-2017 00:45 - - - - - - - - - - - - - - - - - - - - - - - - - - - - 8.68 3.06 533.00 24.45 - - - - - - - - - - - - 2.84 - -
22-Nov-2017 00:30 - - - - - - - - - - - - - - - - - - - - - - - - - - - - 8.68 3.16 533.00 24.45 - - - - - - - - - - - - 2.84 - -
22-Nov-2017 00:15 - - - - - - - - - - - - - - - - - - - - - - - - - - - - 8.68 3.25 532.00 24.38 - - - - - - - - - - - - 2.84 - -
22-Nov-2017 00:00 - - - - - - - - - - - - - - - - - - - - - - - - - - - - 8.69 3.35 533.00 24.45 - - - - - - - - - - - - 2.84 - -
21-Nov-2017 23:45 - - - - - - - - - - - - - - - - - - - - - - - - - - - - 8.68 3.45 532.00 24.38 - - - - - - - - - - - - 2.84 - -
21-Nov-2017 23:30 - - - - - - - - - - - - - - - - - - - - - - - - - - - - 8.69 3.54 532.00 24.38 - - - - - - - - - - - - 2.84 - -
21-Nov-2017 23:15 - - - - - - - - - - - - - - - - - - - - - - - - - - - - 8.69 3.64 532.00 24.38 - - - - - - - - - - - - 2.84 - -
21-Nov-2017 23:00 - - - - - - - - - - - - - - - - - - - - - - - - - - - - 8.70 3.75 532.00 24.38 - - - - - - - - - - - - 2.84 - -
21-Nov-2017 22:45 - - - - - - - - - - - - - - - - - - - - - - - - - - - - 8.69 3.85 533.00 24.45 - - - - - - - - - - - - 2.84 - -
21-Nov-2017 22:30 - - - - - - - - - - - - - - - - - - - - - - - - - - - - 8.70 3.94 533.00 24.45 - - - - - - - - - - - - 2.84 - -
21-Nov-2017 22:15 - - - - - - - - - - - - - - - - - - - - - - - - - - - - 8.70 4.02 534.00 24.52 - - - - - - - - - - - - 2.85 - -
21-Nov-2017 22:00 - - - - - - - - - - - - - - - - - - - - - - - - - - - - 8.70 4.11 535.00 24.58 - - - - - - - - - - - - 2.86 - -
21-Nov-2017 21:45 - - - - - - - - - - - - - - - - - - - - - - - - - - - - 8.71 4.19 535.00 24.58 - - - - - - - - - - - - 2.86 - -
21-Nov-2017 21:30 - - - - - - - - - - - - - - - - - - - - - - - - - - - - 8.71 4.28 536.00 24.65 - - - - - - - - - - - - 2.86 - -
21-Nov-2017 21:15 - - - - - - - - - - - - - - - - - - - - - - - - - - - - 8.71 4.39 536.00 24.65 - - - - - - - - - - - - 2.86 - -
21-Nov-2017 21:00 - - - - - - - - - - - - - - - - - - - - - - - - - - - - 8.71 4.49 537.00 24.72 - - - - - - - - - - - - 2.87 - -
21-Nov-2017 20:45 - - - - - - - - - - - - - - - - - - - - - - - - - - - - 8.72 4.58 537.00 24.72 - - - - - - - - - - - - 2.87 - -
21-Nov-2017 20:30 - - - - - - - - - - - - - - - - - - - - - - - - - - - - 8.72 4.68 536.00 24.65 - - - - - - - - - - - - 2.86 - -
21-Nov-2017 20:15 - - - - - - - - - - - - - - - - - - - - - - - - - - - - 8.72 4.78 537.00 24.72 - - - - - - - - - - - - 2.87 - -
21-Nov-2017 20:00 - - - - - - - - - - - - - - - - - - - - - - - - - - - - 8.72 4.90 536.00 24.65 - - - - - - - - - - - - 2.86 - -
21-Nov-2017 19:45 - - - - - - - - - - - - - - - - - - - - - - - - - - - - 8.72 5.01 535.00 24.58 - - - - - - - - - - - - 2.86 - -
21-Nov-2017 19:30 - - - - - - - - - - - - - - - - - - - - - - - - - - - - 8.72 5.13 535.00 24.58 - - - - - - - - - - - - 2.86 - -
21-Nov-2017 19:15 - - - - - - - - - - - - - - - - - - - - - - - - - - - - 8.72 5.24 535.00 24.58 - - - - - - - - - - - - 2.86 - -
21-Nov-2017 19:00 - - - - - - - - - - - - - - - - - - - - - - - - - - - - 8.73 5.37 534.00 24.52 - - - - - - - - - - - - 2.85 - -
21-Nov-2017 18:45 - - - - - - - - - - - - - - - - - - - - - - - - - - - - 8.73 5.49 533.00 24.45 - - - - - - - - - - - - 2.84 - -
21-Nov-2017 18:30 - - - - - - - - - - - - - - - - - - - - - - - - - - - - 8.74 5.60 533.00 24.45 - - - - - - - - - - - - 2.84 - -
21-Nov-2017 18:15 - - - - - - - - - - - - - - - - - - - - - - - - - - - - 8.74 5.70 532.00 24.38 - - - - - - - - - - - - 2.84 - -
21-Nov-2017 18:00 - - - - - - - - - - - - - - - - - - - - - - - - - - - - 8.74 5.79 532.00 24.38 - - - - - - - - - - - - 2.84 - -
21-Nov-2017 17:45 - - - - - - - - - - - - - - - - - - - - - - - - - - - - 8.74 5.87 532.00 24.38 - - - - - - - - - - - - 2.84 - -
21-Nov-2017 17:30 - - - - - - - - - - - - - - - - - - - - - - - - - - - - 8.75 5.94 532.00 24.38 - - - - - - - - - - - - 2.84 - -
21-Nov-2017 17:15 - - - - - - - - - - - - - - - - - - - - - - - - - - - - 8.75 6.04 532.00 24.38 - - - - - - - - - - - - 2.84 - -
21-Nov-2017 17:00 - - - - - - - - - - - - - - - - - - - - - - - - - - - - 8.75 6.14 531.00 24.31 - - - - - - - - - - - - 2.83 - -
21-Nov-2017 16:45 - - - - - - - - - - - - - - - - - - - - - - - - - - - - 8.75 6.26 531.00 24.31 - - - - - - - - - - - - 2.83 - -
21-Nov-2017 16:30 - - - - - - - - - - - - - - - - - - - - - - - - - - - - 8.75 6.42 532.00 24.38 - - - - - - - - - - - - 2.84 - -
21-Nov-2017 16:15 - - - - - - - - - - - - - - - - - - - - - - - - - - - - 8.75 6.58 532.00 24.38 - - - - - - - - - - - - 2.84 - -
21-Nov-2017 16:00 - - - - - - - - - - - - 8.32 10.63 471.00 20.23 - - - - - - - - - - - - 8.75 6.77 532.00 24.38 - 31.51 - - - - - - - - - - 2.84 2.38 -
21-Nov-2017 15:45 - - - - - - - - - - - - 8.30 11.13 469.00 20.10 - - - - - - - - - - - - 8.75 6.94 532.00 24.38 - 31.51 - - - - - - - - - - 2.84 2.37 -
21-Nov-2017 15:30 - - - - - - - - - - - - 8.30 11.56 469.00 20.10 - - - - - - - - - - - - 8.75 7.07 533.00 24.45 - 31.51 - - - - - - - - - - 2.84 2.37 -
21-Nov-2017 15:15 - - - - - - - - - - - - 8.30 11.94 470.00 20.16 - - - - - - - - - - - - 8.74 7.16 533.00 24.45 - 31.51 - - - - - - - - - - 2.84 2.38 -
21-Nov-2017 15:00 - - - - - - - - - - - - 8.30 12.28 471.00 20.23 - - - - - - - - - - - - 8.73 7.22 534.00 24.52 - 31.51 - - - - - - - - - - 2.85 2.38 -
21-Nov-2017 14:45 - - - - - - - - - - - - 8.30 12.47 471.00 20.23 - - - - - - - - - - - - 8.72 7.24 533.00 24.45 - 31.51 - - - - - - - - - - 2.84 2.38 -
21-Nov-2017 14:30 - - - - - - - - - - - - 8.29 12.56 470.00 20.16 - - - - - - - - - - - - 8.73 7.19 534.00 24.52 - 31.51 - - - - - - - - - - 2.85 2.38 -
21-Nov-2017 14:15 - - - - - - - - - - - - 8.29 12.51 469.00 20.10 - - - - - - - - - - - - 8.72 7.07 533.00 24.45 - 31.51 - - - - - - - - - - 2.84 2.37 -
21-Nov-2017 14:00 - - - - - - - - - - - - 8.28 12.46 469.00 20.10 - - - - - - - - - - - - 8.72 6.95 533.00 24.45 - 31.51 - - - - - - - - - - 2.84 2.37 -
21-Nov-2017 13:45 - - - - - - - - - - - - 8.28 12.44 467.00 19.96 - - - - - - - - - - - - 8.71 6.91 534.00 24.52 - 33.34 - - - - - - - - - - 2.85 2.36 -
21-Nov-2017 13:30 - - - - - - - - - - - - 8.28 12.48 466.00 19.89 - - - - - - - - - - - - 8.70 6.81 533.00 24.45 - 33.34 - - - - - - - - - - 2.84 2.35 -
21-Nov-2017 13:15 - - - - - - - - - - - - 8.27 12.29 463.00 19.69 - - - - - - - - - - - - 8.70 6.65 533.00 24.45 - 31.51 - - - - - - - - - - 2.84 2.33 -
21-Nov-2017 13:00 - - - - - - - - - - - - 8.26 11.68 462.00 19.62 - - - - - - - - - - - - 8.70 6.34 533.00 24.45 - 33.34 - - - - - - - - - - 2.84 2.32 -
21-Nov-2017 12:45 - - - - - - - - - - - - 8.25 10.90 463.00 19.69 - - - - - - - - - - - - 8.70 5.95 533.00 24.45 - 33.34 - - - - - - - - - - 2.84 2.33 -
21-Nov-2017 12:30 - - - - - - - - - - - - 8.24 10.32 466.00 19.89 - - - - - - - - - - - - 8.70 5.69 531.00 24.31 - 33.34 - - - - - - - - - - 2.83 2.35 -
21-Nov-2017 12:15 - - - - - - - - - - - - 8.23 10.19 466.00 19.89 - - - - - - - - - - - - 8.69 5.67 533.00 24.45 - 33.34 - - - - - - - - - - 2.84 2.35 -
21-Nov-2017 12:00 - - - - - - - - - - - - 8.23 10.22 464.00 19.76 - - - - - - - - - - - - 8.69 5.40 532.00 24.38 - 31.51 - - - - - - - - - - 2.84 2.34 -
21-Nov-2017 11:45 - - - - - - - - - - - - 8.24 10.41 463.00 19.69 - - - - - - - - - - - - 8.69 5.07 531.00 24.31 - 33.34 - - - - - - - - - - 2.83 2.33 -
21-Nov-2017 11:30 - - - - - - - - - - - - 8.23 10.31 459.00 19.42 - - - - - - - - - - - - 8.69 4.71 531.00 24.31 - 33.34 - - - - - - - - - - 2.83 2.30 -
21-Nov-2017 11:15 - - - - - - - - - - - - 8.23 9.69 457.00 19.28 - - - - - - - - - - - - 8.69 4.31 531.00 24.31 - 33.34 - - - - - - - - - - 2.83 2.29 -
21-Nov-2017 11:00 - - - - - - - - - - - - 8.22 8.71 455.00 19.14 - - - - - - - - - - - - 8.69 4.04 530.00 24.24 - 33.34 - - - - - - - - - - 2.83 2.28 -
21-Nov-2017 10:45 - - - - - - - - - - - - 8.21 7.47 455.00 19.14 - - - - - - - - - - - - 8.69 3.74 530.00 24.24 - 33.34 - - - - - - - - - - 2.83 2.28 -
21-Nov-2017 10:30 - - - - - - - - - - - - 8.20 6.14 460.00 19.48 - - - - - - - - - - - - 8.68 3.50 529.00 24.18 - 33.34 - - - - - - - - - - 2.82 2.31 -
21-Nov-2017 10:15 - - - - - - - - - - - - 8.21 4.89 468.00 20.03 - - - - - - - - - - - - 8.68 3.20 528.00 24.11 - 33.34 - - - - - - - - - - 2.81 2.36 -
21-Nov-2017 10:00 - - - - - - - - - - - - - - - - - - - - - - - - - - - - 8.68 2.92 527.00 24.04 - - - - - - - - - - - - 2.81 - -
21-Nov-2017 09:45 - - - - - - - - - - - - - - - - - - - - - - - - - - - - 8.68 2.58 526.00 23.97 - - - - - - - - - - - - 2.80 - -
21-Nov-2017 09:30 - - - - - - - - - - - - - - - - - - - - - - - - - - - - 8.68 2.29 525.00 23.90 - - - - - - - - - - - - 2.79 - -
21-Nov-2017 09:15 - - - - - - - - - - - - - - - - - - - - - - - - - - - - 8.67 2.06 525.00 23.90 - - - - - - - - - - - - 2.79 - -
21-Nov-2017 09:00 - - - - - - - - - - - - 8.24 3.02 481.00 20.91 - - - - - - - - - - - - 8.67 1.91 525.00 23.90 - 31.51 - - - - - - - - - - 2.79 2.45 -
21-Nov-2017 08:45 - - - - - - - - - - - - 8.25 2.71 482.00 20.98 - - - - - - - - - - - - 8.66 1.80 525.00 23.90 - 33.34 - - - - - - - - - - 2.79 2.46 -
21-Nov-2017 08:30 - - - - - - - - - - - - 8.26 2.45 483.00 21.05 - - - - - - - - - - - - 8.66 1.81 525.00 23.90 - 31.51 - - - - - - - - - - 2.79 2.46 -
21-Nov-2017 08:15 - - - - - - - - - - - - 8.26 2.17 484.00 21.12 - - - - - - - - - - - - 8.66 1.74 524.00 23.84 - 31.51 - - - - - - - - - - 2.79 2.47 -
21-Nov-2017 08:00 - - - - - - - - - - - - 8.26 1.98 485.00 21.18 - - - - - - - - - - - - 8.66 1.69 526.00 23.97 - 31.51 - - - - - - - - - - 2.80 2.48 -
21-Nov-2017 07:45 - - - - - - - - - - - - 8.26 1.85 485.00 21.18 - - - - - - - - - - - - 8.66 1.65 525.00 23.90 - 31.51 - - - - - - - - - - 2.79 2.48 -
21-Nov-2017 07:30 - - - - - - - - - - - - 8.26 1.81 485.00 21.18 - - - - - - - - - - - - 8.65 1.64 526.00 23.97 - 33.34 - - - - - - - - - - 2.80 2.48 -
21-Nov-2017 07:15 - - - - - - - - - - - - 8.27 1.80 486.00 21.25 - - - - - - - - - - - - 8.65 1.63 527.00 24.04 - 33.34 - - - - - - - - - - 2.81 2.48 -
21-Nov-2017 07:00 - - - - - - - - - - - - - - - - - - - - - - - - - - - - 8.65 1.62 528.00 24.11 - - - - - - - - - - - - 2.81 - -
21-Nov-2017 06:45 - - - - - - - - - - - - - - - - - - - - - - - - - - - - 8.65 1.61 529.00 24.18 - - - - - - - - - - - - 2.82 - -
21-Nov-2017 06:30 - - - - - - - - - - - - - - - - - - - - - - - - - - - - 8.65 1.59 528.00 24.11 - - - - - - - - - - - - 2.81 - -
21-Nov-2017 06:15 - - - - - - - - - - - - - - - - - - - - - - - - - - - - 8.65 1.59 529.00 24.18 - - - - - - - - - - - - 2.82 - -
21-Nov-2017 06:00 - - - - - - - - - - - - - - - - - - - - - - - - - - - - 8.65 1.62 529.00 24.18 - - - - - - - - - - - - 2.82 - -
21-Nov-2017 05:45 - - - - - - - - - - - - - - - - - - - - - - - - - - - - 8.65 1.65 529.00 24.18 - - - - - - - - - - - - 2.82 - -
21-Nov-2017 05:30 - - - - - - - - - - - - - - - - - - - - - - - - - - - - 8.66 1.69 530.00 24.24 - - - - - - - - - - - - 2.83 - -
21-Nov-2017 05:15 - - - - - - - - - - - - - - - - - - - - - - - - - - - - 8.66 1.73 531.00 24.31 - - - - - - - - - - - - 2.83 - -
21-Nov-2017 05:00 - - - - - - - - - - - - - - - - - - - - - - - - - - - - 8.66 1.78 532.00 24.38 - - - - - - - - - - - - 2.84 - -
21-Nov-2017 04:45 - - - - - - - - - - - - - - - - - - - - - - - - - - - - 8.66 1.82 531.00 24.31 - - - - - - - - - - - - 2.83 - -
21-Nov-2017 04:30 - - - - - - - - - - - - - - - - - - - - - - - - - - - - 8.66 1.87 532.00 24.38 - - - - - - - - - - - - 2.84 - -
21-Nov-2017 04:15 - - - - - - - - - - - - - - - - - - - - - - - - - - - - 8.66 1.91 532.00 24.38 - - - - - - - - - - - - 2.84 - -
21-Nov-2017 04:00 - - - - - - - - - - - - - - - - - - - - - - - - - - - - 8.66 1.94 532.00 24.38 - - - - - - - - - - - - 2.84 - -
21-Nov-2017 03:45 - - - - - - - - - - - - - - - - - - - - - - - - - - - - 8.66 1.98 533.00 24.45 - - - - - - - - - - - - 2.84 - -
21-Nov-2017 03:30 - - - - - - - - - - - - - - - - - - - - - - - - - - - - 8.66 2.00 534.00 24.52 - - - - - - - - - - - - 2.85 - -
21-Nov-2017 03:15 - - - - - - - - - - - - - - - - - - - - - - - - - - - - 8.66 2.02 534.00 24.52 - - - - - - - - - - - - 2.85 - -
21-Nov-2017 03:00 - - - - - - - - - - - - - - - - - - - - - - - - - - - - 8.66 2.04 534.00 24.52 - - - - - - - - - - - - 2.85 - -
21-Nov-2017 02:45 - - - - - - - - - - - - - - - - - - - - - - - - - - - - 8.67 2.08 534.00 24.52 - - - - - - - - - - - - 2.85 - -
21-Nov-2017 02:30 - - - - - - - - - - - - - - - - - - - - - - - - - - - - 8.67 2.13 534.00 24.52 - - - - - - - - - - - - 2.85 - -
21-Nov-2017 02:15 - - - - - - - - - - - - - - - - - - - - - - - - - - - - 8.67 2.18 533.00 24.45 - - - - - - - - - - - - 2.84 - -
21-Nov-2017 02:00 - - - - - - - - - - - - - - - - - - - - - - - - - - - - 8.67 2.24 532.00 24.38 - - - - - - - - - - - - 2.84 - -
21-Nov-2017 01:45 - - - - - - - - - - - - - - - - - - - - - - - - - - - - 8.67 2.30 531.00 24.31 - - - - - - - - - - - - 2.83 - -
21-Nov-2017 01:30 - - - - - - - - - - - - - - - - - - - - - - - - - - - - 8.67 2.34 531.00 24.31 - - - - - - - - - - - - 2.83 - -
21-Nov-2017 01:15 - - - - - - - - - - - - - - - - - - - - - - - - - - - - 8.68 2.39 531.00 24.31 - - - - - - - - - - - - 2.83 - -
21-Nov-2017 01:00 - - - - - - - - - - - - - - - - - - - - - - - - - - - - 8.68 2.44 531.00 24.31 - - - - - - - - - - - - 2.83 - -
21-Nov-2017 00:45 - - - - - - - - - - - - - - - - - - - - - - - - - - - - 8.68 2.50 531.00 24.31 - - - - - - - - - - - - 2.83 - -
21-Nov-2017 00:30 - - - - - - - - - - - - - - - - - - - - - - - - - - - - 8.68 2.56 531.00 24.31 - - - - - - - - - - - - 2.83 - -
21-Nov-2017 00:15 - - - - - - - - - - - - - - - - - - - - - - - - - - - - 8.68 2.62 531.00 24.31 - - - - - - - - - - - - 2.83 - -
21-Nov-2017 00:00 - - - - - - - - - - - - - - - - - - - - - - - - - - - - 8.68 2.67 532.00 24.38 - - - - - - - - - - - - 2.84 - -
20-Nov-2017 23:45 - - - - - - - - - - - - - - - - - - - - - - - - - - - - 8.69 2.74 533.00 24.45 - - - - - - - - - - - - 2.84 - -
20-Nov-2017 23:30 - - - - - - - - - - - - - - - - - - - - - - - - - - - - 8.69 2.79 534.00 24.52 - - - - - - - - - - - - 2.85 - -
20-Nov-2017 23:15 - - - - - - - - - - - - - - - - - - - - - - - - - - - - 8.69 2.85 534.00 24.52 - - - - - - - - - - - - 2.85 - -
20-Nov-2017 23:00 - - - - - - - - - - - - - - - - - - - - - - - - - - - - 8.69 2.89 535.00 24.58 - - - - - - - - - - - - 2.86 - -
20-Nov-2017 22:45 - - - - - - - - - - - - - - - - - - - - - - - - - - - - 8.69 2.94 535.00 24.58 - - - - - - - - - - - - 2.86 - -
20-Nov-2017 22:30 - - - - - - - - - - - - - - - - - - - - - - - - - - - - 8.69 2.99 535.00 24.58 - - - - - - - - - - - - 2.86 - -
20-Nov-2017 22:15 - - - - - - - - - - - - - - - - - - - - - - - - - - - - 8.69 3.03 535.00 24.58 - - - - - - - - - - - - 2.86 - -
20-Nov-2017 22:00 - - - - - - - - - - - - - - - - - - - - - - - - - - - - 8.70 3.04 536.00 24.65 - - - - - - - - - - - - 2.86 - -
20-Nov-2017 21:45 - - - - - - - - - - - - - - - - - - - - - - - - - - - - 8.70 3.06 536.00 24.65 - - - - - - - - - - - - 2.86 - -
20-Nov-2017 21:30 - - - - - - - - - - - - - - - - - - - - - - - - - - - - 8.70 3.08 536.00 24.65 - - - - - - - - - - - - 2.86 - -
20-Nov-2017 21:15 - - - - - - - - - - - - - - - - - - - - - - - - - - - - 8.70 3.11 537.00 24.72 - - - - - - - - - - - - 2.87 - -
20-Nov-2017 21:00 - - - - - - - - - - - - - - - - - - - - - - - - - - - - 8.70 3.14 536.00 24.65 - - - - - - - - - - - - 2.86 - -
20-Nov-2017 20:45 - - - - - - - - - - - - - - - - - - - - - - - - - - - - 8.70 3.18 535.00 24.58 - - - - - - - - - - - - 2.86 - -
20-Nov-2017 20:30 - - - - - - - - - - - - - - - - - - - - - - - - - - - - 8.71 3.22 536.00 24.65 - - - - - - - - - - - - 2.86 - -
20-Nov-2017 20:15 - - - - - - - - - - - - - - - - - - - - - - - - - - - - 8.71 3.27 535.00 24.58 - - - - - - - - - - - - 2.86 - -
20-Nov-2017 20:00 - - - - - - - - - - - - 8.35 4.51 474.00 20.44 - - - - - - - - - - - - 8.71 3.34 535.00 24.58 - 31.51 - - - - - - - - - - 2.86 2.40 -
20-Nov-2017 19:45 - - - - - - - - - - - - 8.35 4.60 474.00 20.44 - - - - - - - - - - - - 8.71 3.40 535.00 24.58 - 31.51 - - - - - - - - - - 2.86 2.40 -
20-Nov-2017 19:30 - - - - - - - - - - - - 8.34 4.74 473.00 20.37 - - - - - - - - - - - - 8.71 3.47 534.00 24.52 - 29.76 - - - - - - - - - - 2.85 2.40 -
20-Nov-2017 19:15 - - - - - - - - - - - - 8.35 4.87 474.00 20.44 - - - - - - - - - - - - 8.72 3.52 534.00 24.52 - 29.76 - - - - - - - - - - 2.85 2.40 -
20-Nov-2017 19:00 - - - - - - - - - - - - 8.34 4.98 473.00 20.37 - - - - - - - - - - - - 8.72 3.59 533.00 24.45 - 29.76 - - - - - - - - - - 2.84 2.40 -
20-Nov-2017 18:45 - - - - - - - - - - - - 8.35 5.17 473.00 20.37 - - - - - - - - - - - - 8.72 3.66 532.00 24.38 - 29.76 - - - - - - - - - - 2.84 2.40 -
20-Nov-2017 18:30 - - - - - - - - - - - - 8.34 5.38 475.00 20.50 - - - - - - - - - - - - 8.72 3.72 532.00 24.38 - 31.51 - - - - - - - - - - 2.84 2.41 -
20-Nov-2017 18:15 - - - - - - - - - - - - 8.33 5.59 476.00 20.57 - - - - - - - - - - - - 8.72 3.81 532.00 24.38 - 29.76 - - - - - - - - - - 2.84 2.42 -
20-Nov-2017 18:00 - - - - - - - - - - - - 8.31 5.86 475.00 20.50 - - - - - - - - - - - - 8.72 3.89 531.00 24.31 - 31.51 - - - - - - - - - - 2.83 2.41 -
20-Nov-2017 17:45 - - - - - - - - - - - - 8.28 6.13 474.00 20.44 - - - - - - - - - - - - 8.73 4.00 530.00 24.24 - 31.51 - - - - - - - - - - 2.83 2.40 -
20-Nov-2017 17:30 - - - - - - - - - - - - 8.26 6.38 474.00 20.44 - - - - - - - - - - - - 8.73 4.10 530.00 24.24 - 31.51 - - - - - - - - - - 2.83 2.40 -
20-Nov-2017 17:15 - - - - - - - - - - - - 8.24 6.65 473.00 20.37 - - - - - - - - - - - - 8.73 4.17 530.00 24.24 - 31.51 - - - - - - - - - - 2.83 2.40 -
20-Nov-2017 17:00 - - - - - - - - - - - - - - - - - - - - - - - - - - - - 8.73 4.23 530.00 24.24 - - - - - - - - - - - - 2.83 - -
20-Nov-2017 16:45 - - - - - - - - - - - - - - - - - - - - - - - - - - - - 8.73 4.28 530.00 24.24 - - - - - - - - - - - - 2.83 - -
20-Nov-2017 16:30 - - - - - - - - - - - - - - - - - - - - - - - - - - - - 8.74 4.34 530.00 24.24 - - - - - - - - - - - - 2.83 - -
20-Nov-2017 16:15 - - - - - - - - - - - - - - - - - - - - - - - - - - - - 8.74 4.37 530.00 24.24 - - - - - - - - - - - - 2.83 - -
20-Nov-2017 16:00 - - - - - - - - - - - - 8.27 7.99 465.00 19.82 - - - - - - - - - - - - 8.73 4.39 530.00 24.24 - 31.51 - - - - - - - - - - 2.83 2.34 -
20-Nov-2017 15:45 - - - - - - - - - - - - 8.27 8.12 463.00 19.69 - - - - - - - - - - - - 8.73 4.38 531.00 24.31 - 31.51 - - - - - - - - - - 2.83 2.33 -
20-Nov-2017 15:30 - - - - - - - - - - - - 8.28 8.26 462.00 19.62 - - - - - - - - - - - - 8.73 4.37 532.00 24.38 - 31.51 - - - - - - - - - - 2.84 2.32 -
20-Nov-2017 15:15 - - - - - - - - - - - - 8.28 8.43 460.00 19.48 - - - - - - - - - - - - 8.73 4.37 532.00 24.38 - 29.76 - - - - - - - - - - 2.84 2.31 -
20-Nov-2017 15:00 - - - - - - - - - - - - 8.28 8.58 458.00 19.35 - - - - - - - - - - - - 8.72 4.40 534.00 24.52 - 29.76 - - - - - - - - - - 2.85 2.30 -
20-Nov-2017 14:45 - - - - - - - - - - - - 8.27 8.66 454.00 19.08 - - - - - - - - - - - - 8.71 4.37 537.00 24.72 - 29.76 - - - - - - - - - - 2.87 2.27 -
20-Nov-2017 14:30 - - - - - - - - - - - - 8.27 8.63 451.00 18.87 - - - - - - - - - - - - 8.71 4.30 539.00 24.86 - 29.76 - - - - - - - - - - 2.88 2.25 -
20-Nov-2017 14:15 - - - - - - - - - - - - 8.25 8.39 446.00 18.53 - - - - - - - - - - - - 8.71 4.19 542.00 25.06 - 29.76 - - - - - - - - - - 2.90 2.22 -
20-Nov-2017 14:00 - - - - - - - - - - - - 8.23 7.60 447.00 18.60 - - - - - - - - - - - - 8.71 4.00 546.00 25.33 - 31.51 - - - - - - - - - - 2.93 2.23 -
20-Nov-2017 13:45 - - - - - - - - - - - - 8.22 6.46 453.00 19.01 - - - - - - - - - - - - 8.71 3.68 548.00 25.47 - 31.51 - - - - - - - - - - 2.94 2.26 -
20-Nov-2017 13:30 - - - - - - - - - - - - 8.21 5.62 461.00 19.55 - - - - - - - - - - - - 8.71 3.46 550.00 25.60 - 31.51 - - - - - - - - - - 2.95 2.32 -
20-Nov-2017 13:15 - - - - - - - - - - - - 8.20 4.70 467.00 19.96 - - - - - - - - - - - - 8.71 3.32 552.00 25.74 - 31.51 - - - - - - - - - - 2.96 2.36 -
20-Nov-2017 13:00 - - - - - - - - - - - - 8.20 3.66 477.00 20.64 - - - - - - - - - - - - 8.71 3.00 553.00 25.81 - 31.51 - - - - - - - - - - 2.97 2.42 -
20-Nov-2017 12:45 - - - - - - - - - - - - 8.20 2.97 485.00 21.18 - - - - - - - - - - - - 8.70 2.73 556.00 26.01 - 31.51 - - - - - - - - - - 2.99 2.48 -
20-Nov-2017 12:30 - - - - - - - - - - - - 8.20 2.59 490.00 21.52 - - - - - - - - - - - - 8.70 2.45 558.00 26.15 - 31.51 - - - - - - - - - - 3.00 2.51 -
20-Nov-2017 12:15 - - - - - - - - - - - - 8.19 2.42 490.00 21.52 - - - - - - - - - - - - 8.70 2.13 559.00 26.22 - 31.51 - - - - - - - - - - 3.01 2.51 -
20-Nov-2017 12:00 - - - - - - - - - - - - 8.19 2.26 492.00 21.66 - - - - - - - - - - - - 8.69 1.86 559.00 26.22 - 31.51 - - - - - - - - - - 3.01 2.52 -
20-Nov-2017 11:45 - - - - - - - - - - - - 8.00 2.14 493.00 21.73 - - - - - - - - - - - - 8.69 1.66 561.00 26.35 - 31.51 - - - - - - - - - - 3.02 2.53 -
20-Nov-2017 11:30 - - - - - - - - - - - - - - - - - - - - - - - - - - - - 8.69 1.49 560.00 26.28 - - - - - - - - - - - - 3.01 - -
20-Nov-2017 11:15 - - - - - - - - - - - - - - - - - - - - - - - - - - - - 8.68 1.35 554.00 25.88 - - - - - - - - - - - - 2.98 - -
20-Nov-2017 11:00 - - - - - - - - - - - - - - - - - - - - - - - - - - - - 8.68 1.25 544.00 25.20 - - - - - - - - - - - - 2.91 - -
20-Nov-2017 10:45 - - - - - - - - - - - - - - - - - - - - - - - - - - - - 8.68 1.16 533.00 24.45 - - - - - - - - - - - - 2.84 - -
20-Nov-2017 10:30 - - - - - - - - - - - - - - - - - - - - - - - - - - - - 8.67 1.06 528.00 24.11 - - - - - - - - - - - - 2.81 - -
20-Nov-2017 10:15 - - - - - - - - - - - - - - - - - - - - - - - - - - - - 8.67 0.96 526.00 23.97 - - - - - - - - - - - - 2.80 - -
20-Nov-2017 10:00 - - - - - - - - - - - - - - - - - - - - - - - - - - - - 8.67 0.86 524.00 23.84 - - - - - - - - - - - - 2.79 - -
20-Nov-2017 09:45 - - - - - - - - - - - - - - - - - - - - - - - - - - - - 8.67 0.77 523.00 23.77 - - - - - - - - - - - - 2.78 - -
20-Nov-2017 09:30 - - - - - - - - - - - - - - - - - - - - - - - - - - - - 8.66 0.67 523.00 23.77 - - - - - - - - - - - - 2.78 - -
20-Nov-2017 09:15 - - - - - - - - - - - - - - - - - - - - - - - - - - - - 8.65 0.57 517.00 23.36 - - - - - - - - - - - - 2.74 - -
20-Nov-2017 09:00 - - - - - - - - - - - - - - - - - - - - - - - - - - - - 8.66 0.50 513.00 23.09 - - - - - - - - - - - - 2.72 - -
20-Nov-2017 08:45 - - - - - - - - - - - - - - - - - - - - - - - - - - - - 8.65 0.42 512.00 0.00 - - - - - - - - - - - - 2.71 - -
20-Nov-2017 08:30 - - - - - - - - - - - - - - - - - - - - - - - - - - - - 8.65 0.36 510.00 0.00 - - - - - - - - - - - - 2.70 - -
20-Nov-2017 08:15 - - - - - - - - - - - - - - - - - - - - - - - - - - - - 8.65 0.29 510.00 22.88 - - - - - - - - - - - - 2.70 - -
20-Nov-2017 08:00 - - - - - - - - - - - - - - - - - - - - - - - - - - - - 8.65 0.24 512.00 23.02 - - - - - - - - - - - - 2.71 - -
20-Nov-2017 07:45 - - - - - - - - - - - - - - - - - - - - - - - - - - - - 8.65 0.17 513.00 23.09 - - - - - - - - - - - - 2.72 - -
20-Nov-2017 07:30 - - - - - - - - - - - - - - - - - - - - - - - - - - - - 8.65 0.13 513.00 23.09 - - - - - - - - - - - - 2.72 - -
20-Nov-2017 07:15 - - - - - - - - - - - - - - - - - - - - - - - - - - - - 8.65 0.13 515.00 23.22 - - - - - - - - - - - - 2.73 - -
20-Nov-2017 07:00 - - - - - - - - - - - - - - - - - - - - - - - - - - - - 8.65 0.14 517.00 23.36 - - - - - - - - - - - - 2.74 - -
20-Nov-2017 06:45 - - - - - - - - - - - - - - - - - - - - - - - - - - - - 8.66 0.17 519.00 23.50 - - - - - - - - - - - - 2.76 - -
20-Nov-2017 06:30 - - - - - - - - - - - - - - - - - - - - - - - - - - - - 8.66 0.17 522.00 23.70 - - - - - - - - - - - - 2.78 - -
20-Nov-2017 06:15 - - - - - - - - - - - - - - - - - - - - - - - - - - - - 8.66 0.20 526.00 23.97 - - - - - - - - - - - - 2.80 - -
20-Nov-2017 06:00 - - - - - - - - - - - - - - - - - - - - - - - - - - - - 8.66 0.23 529.00 24.18 - - - - - - - - - - - - 2.82 - -
20-Nov-2017 05:45 - - - - - - - - - - - - - - - - - - - - - - - - - - - - 8.66 0.27 532.00 24.38 - - - - - - - - - - - - 2.84 - -
20-Nov-2017 05:30 - - - - - - - - - - - - - - - - - - - - - - - - - - - - 8.67 0.31 535.00 24.58 - - - - - - - - - - - - 2.86 - -
20-Nov-2017 05:15 - - - - - - - - - - - - - - - - - - - - - - - - - - - - 8.67 0.37 537.00 24.72 - - - - - - - - - - - - 2.87 - -
20-Nov-2017 05:00 - - - - - - - - - - - - - - - - - - - - - - - - - - - - 8.67 0.43 538.00 24.79 - - - - - - - - - - - - 2.88 - -
20-Nov-2017 04:45 - - - - - - - - - - - - - - - - - - - - - - - - - - - - 8.67 0.51 539.00 24.86 - - - - - - - - - - - - 2.88 - -
20-Nov-2017 04:30 - - - - - - - - - - - - - - - - - - - - - - - - - - - - 8.67 0.59 540.00 24.92 - - - - - - - - - - - - 2.89 - -
20-Nov-2017 04:15 - - - - - - - - - - - - - - - - - - - - - - - - - - - - 8.67 0.67 540.00 24.92 - - - - - - - - - - - - 2.89 - -
20-Nov-2017 04:00 - - - - - - - - - - - - - - - - - - - - - - - - - - - - 8.67 0.76 541.00 24.99 - - - - - - - - - - - - 2.89 - -
20-Nov-2017 03:45 - - - - - - - - - - - - - - - - - - - - - - - - - - - - 8.67 0.86 542.00 25.06 - - - - - - - - - - - - 2.90 - -
20-Nov-2017 03:30 - - - - - - - - - - - - - - - - - - - - - - - - - - - - 8.67 0.96 544.00 25.20 - - - - - - - - - - - - 2.91 - -
20-Nov-2017 03:15 - - - - - - - - - - - - - - - - - - - - - - - - - - - - 8.67 1.07 546.00 25.33 - - - - - - - - - - - - 2.93 - -
20-Nov-2017 03:00 - - - - - - - - - - - - - - - - - - - - - - - - - - - - 8.68 1.16 549.00 25.54 - - - - - - - - - - - - 2.94 - -
20-Nov-2017 02:45 - - - - - - - - - - - - - - - - - - - - - - - - - - - - 8.68 1.26 552.00 25.74 - - - - - - - - - - - - 2.96 - -
20-Nov-2017 02:30 - - - - - - - - - - - - - - - - - - - - - - - - - - - - 8.68 1.36 555.00 25.94 - - - - - - - - - - - - 2.98 - -
20-Nov-2017 02:15 - - - - - - - - - - - - - - - - - - - - - - - - - - - - 8.68 1.47 558.00 26.15 - - - - - - - - - - - - 3.00 - -
20-Nov-2017 02:00 - - - - - - - - - - - - - - - - - - - - - - - - - - - - 8.69 1.58 560.00 26.28 - - - - - - - - - - - - 3.01 - -
20-Nov-2017 01:45 - - - - - - - - - - - - - - - - - - - - - - - - - - - - 8.69 1.69 563.00 26.49 - - - - - - - - - - - - 3.03 - -
20-Nov-2017 01:30 - - - - - - - - - - - - - - - - - - - - - - - - - - - - 8.69 1.80 565.00 26.62 - - - - - - - - - - - - 3.04 - -
20-Nov-2017 01:15 - - - - - - - - - - - - - - - - - - - - - - - - - - - - 8.70 1.92 566.00 26.69 - - - - - - - - - - - - 3.05 - -
20-Nov-2017 01:00 - - - - - - - - - - - - - - - - - - - - - - - - - - - - 8.70 2.03 565.00 26.62 - - - - - - - - - - - - 3.04 - -
20-Nov-2017 00:45 - - - - - - - - - - - - - - - - - - - - - - - - - - - - 8.70 2.13 565.00 26.62 - - - - - - - - - - - - 3.04 - -
20-Nov-2017 00:30 - - - - - - - - - - - - - - - - - - - - - - - - - - - - 8.70 2.23 565.00 26.62 - - - - - - - - - - - - 3.04 - -
20-Nov-2017 00:15 - - - - - - - - - - - - - - - - - - - - - - - - - - - - 8.70 2.31 566.00 26.69 - - - - - - - - - - - - 3.05 - -
20-Nov-2017 00:00 - - - - - - - - - - - - - - - - - - - - - - - - - - - - 8.71 2.40 568.00 26.83 - - - - - - - - - - - - 3.06 - -
19-Nov-2017 23:45 - - - - - - - - - - - - - - - - - - - - - - - - - - - - 8.71 2.49 570.00 26.96 - - - - - - - - - - - - 3.07 - -
19-Nov-2017 23:30 - - - - - - - - - - - - - - - - - - - - - - - - - - - - 8.71 2.59 573.00 27.17 - - - - - - - - - - - - 3.09 - -
19-Nov-2017 23:15 - - - - - - - - - - - - - - - - - - - - - - - - - - - - 8.71 2.68 574.00 27.24 - - - - - - - - - - - - 3.10 - -
19-Nov-2017 23:00 - - - - - - - - - - - - - - - - - - - - - - - - - - - - 8.71 2.77 574.00 27.24 - - - - - - - - - - - - 3.10 - -
19-Nov-2017 22:45 - - - - - - - - - - - - - - - - - - - - - - - - - - - - 8.71 2.88 575.00 27.30 - - - - - - - - - - - - 3.11 - -
19-Nov-2017 22:30 - - - - - - - - - - - - - - - - - - - - - - - - - - - - 8.71 3.01 575.00 27.30 - - - - - - - - - - - - 3.11 - -
19-Nov-2017 22:15 - - - - - - - - - - - - - - - - - - - - - - - - - - - - 8.71 3.12 576.00 27.37 - - - - - - - - - - - - 3.11 - -
19-Nov-2017 22:00 - - - - - - - - - - - - - - - - - - - - - - - - - - - - 8.71 3.25 578.00 0.00 - - - - - - - - - - - - 3.12 - -
19-Nov-2017 21:45 - - - - - - - - - - - - - - - - - - - - - - - - - - - - 8.72 3.36 580.00 0.00 - - - - - - - - - - - - 3.14 - -
19-Nov-2017 21:30 - - - - - - - - - - - - - - - - - - - - - - - - - - - - 8.72 3.49 582.00 0.00 - - - - - - - - - - - - 3.15 - -
19-Nov-2017 21:15 - - - - - - - - - - - - - - - - - - - - - - - - - - - - 8.72 3.61 584.00 27.92 - - - - - - - - - - - - 3.16 - -
19-Nov-2017 21:00 - - - - - - - - - - - - - - - - - - - - - - - - - - - - 8.72 3.71 585.00 27.98 - - - - - - - - - - - - 3.17 - -
19-Nov-2017 20:45 - - - - - - - - - - - - - - - - - - - - - - - - - - - - 8.72 3.82 586.00 28.05 - - - - - - - - - - - - 3.17 - -
19-Nov-2017 20:30 - - - - - - - - - - - - - - - - - - - - - - - - - - - - 8.72 3.92 586.00 28.05 - - - - - - - - - - - - 3.17 - -
19-Nov-2017 20:15 - - - - - - - - - - - - - - - - - - - - - - - - - - - - 8.72 4.02 584.00 27.92 - - - - - - - - - - - - 3.16 - -
19-Nov-2017 20:00 - - - - - - - - - - - - - - - - - - - - - - - - - - - - 8.72 4.13 583.00 27.85 - - - - - - - - - - - - 3.16 - -
19-Nov-2017 19:45 - - - - - - - - - - - - - - - - - - - - - - - - - - - - 8.72 4.25 580.00 27.64 - - - - - - - - - - - - 3.14 - -
19-Nov-2017 19:30 - - - - - - - - - - - - - - - - - - - - - - - - - - - - 8.72 4.37 577.00 27.44 - - - - - - - - - - - - 3.12 - -
19-Nov-2017 19:15 - - - - - - - - - - - - - - - - - - - - - - - - - - - - 8.72 4.49 574.00 27.24 - - - - - - - - - - - - 3.10 - -
19-Nov-2017 19:00 - - - - - - - - - - - - - - - - - - - - - - - - - - - - 8.73 4.65 571.00 27.03 - - - - - - - - - - - - 3.08 - -
19-Nov-2017 18:45 - - - - - - - - - - - - - - - - - - - - - - - - - - - - 8.73 4.80 568.00 26.83 - - - - - - - - - - - - 3.06 - -
19-Nov-2017 18:30 - - - - - - - - - - - - - - - - - - - - - - - - - - - - 8.73 4.95 567.00 26.76 - - - - - - - - - - - - 3.06 - -
19-Nov-2017 18:15 - - - - - - - - - - - - - - - - - - - - - - - - - - - - 8.73 5.08 565.00 26.62 - - - - - - - - - - - - 3.04 - -
19-Nov-2017 18:00 - - - - - - - - - - - - - - - - - - - - - - - - - - - - 8.74 5.22 564.00 26.56 - - - - - - - - - - - - 3.04 - -
19-Nov-2017 17:45 - - - - - - - - - - - - - - - - - - - - - - - - - - - - 8.73 5.37 563.00 26.49 - - - - - - - - - - - - 3.03 - -
19-Nov-2017 17:30 - - - - - - - - - - - - - - - - - - - - - - - - - - - - 8.74 5.51 562.00 26.42 - - - - - - - - - - - - 3.02 - -
19-Nov-2017 17:15 - - - - - - - - - - - - - - - - - - - - - - - - - - - - 8.74 5.63 561.00 26.35 - - - - - - - - - - - - 3.02 - -
19-Nov-2017 17:00 - - - - - - - - - - - - - - - - - - - - - - - - - - - - 8.74 5.78 560.00 0.00 - - - - - - - - - - - - 3.01 - -
19-Nov-2017 16:45 - - - - - - - - - - - - - - - - - - - - - - - - - - - - 8.74 5.95 559.00 0.00 - - - - - - - - - - - - 3.01 - -
19-Nov-2017 16:30 - - - - - - - - - - - - - - - - - - - - - - - - - - - - 8.74 6.13 556.00 0.00 - - - - - - - - - - - - 2.99 - -
19-Nov-2017 16:15 - - - - - - - - - - - - - - - - - - - - - - - - - - - - 8.74 6.30 556.00 26.01 - - - - - - - - - - - - 2.99 - -
19-Nov-2017 16:00 - - - - - - - - - - - - 8.46 12.97 424.00 17.04 - - - - - - - - - - - - 8.74 6.47 555.00 25.94 - 18.35 - - - - - - - - - - 2.98 2.07 -
19-Nov-2017 15:45 - - - - - - - - - - - - 8.44 12.81 429.00 17.38 - - - - - - - - - - - - 8.74 6.63 555.00 25.94 - 18.35 - - - - - - - - - - 2.98 2.11 -
19-Nov-2017 15:30 - - - - - - - - - - - - 8.36 12.83 433.00 17.65 - - - - - - - - - - - - 8.73 6.77 554.00 25.88 - 18.35 - - - - - - - - - - 2.98 2.13 -
19-Nov-2017 15:15 - - - - - - - - - - - - 8.27 12.93 436.00 17.85 - - - - - - - - - - - - 8.73 6.88 555.00 25.94 - 18.35 - - - - - - - - - - 2.98 2.15 -
19-Nov-2017 15:00 - - - - - - - - - - - - 8.26 13.22 435.00 17.78 - - - - - - - - - - - - 8.72 6.95 556.00 26.01 - 18.35 - - - - - - - - - - 2.99 2.15 -
19-Nov-2017 14:45 - - - - - - - - - - - - 8.26 13.52 430.00 17.44 - - - - - - - - - - - - 8.71 6.94 556.00 26.01 - 18.35 - - - - - - - - - - 2.99 2.11 -
19-Nov-2017 14:30 - - - - - - - - - - - - 8.26 13.64 426.00 17.17 - - - - - - - - - - - - 8.71 6.86 557.00 26.08 - 18.35 - - - - - - - - - - 2.99 2.09 -
19-Nov-2017 14:15 - - - - - - - - - - - - 8.24 13.54 422.00 16.90 - - - - - - - - - - - - 8.71 6.75 558.00 26.15 - 18.35 - - - - - - - - - - 3.00 2.06 -
19-Nov-2017 14:00 - - - - - - - - - - - - 8.22 13.28 422.00 16.90 - - - - - - - - - - - - 8.71 6.54 560.00 26.28 - 18.35 - - - - - - - - - - 3.01 2.06 -
19-Nov-2017 13:45 - - - - - - - - - - - - 8.19 13.18 420.00 16.76 - - - - - - - - - - - - 8.70 6.35 563.00 26.49 - 18.35 - - - - - - - - - - 3.03 2.05 -
19-Nov-2017 13:30 - - - - - - - - - - - - 8.18 12.88 421.00 16.83 - - - - - - - - - - - - 8.70 6.09 563.00 26.49 - 18.35 - - - - - - - - - - 3.03 2.05 -
19-Nov-2017 13:15 - - - - - - - - - - - - 8.19 12.37 426.00 17.17 - - - - - - - - - - - - 8.70 5.78 561.00 26.35 - 17.21 - - - - - - - - - - 3.02 2.09 -
19-Nov-2017 13:00 - - - - - - - - - - - - 8.18 11.66 440.00 18.12 - - - - - - - - - - - - 8.69 5.56 561.00 26.35 - 17.21 - - - - - - - - - - 3.02 2.18 -
19-Nov-2017 12:45 - - - - - - - - - - - - 8.18 10.60 468.00 20.03 - - - - - - - - - - - - 8.69 5.26 563.00 26.49 - 17.21 - - - - - - - - - - 3.03 2.36 -
19-Nov-2017 12:30 - - - - - - - - - - - - 8.17 9.50 471.00 20.23 - - - - - - - - - - - - 8.69 4.97 562.00 26.42 - 17.21 - - - - - - - - - - 3.02 2.38 -
19-Nov-2017 12:15 - - - - - - - - - - - - 8.14 8.38 471.00 20.23 - - - - - - - - - - - - 8.70 4.63 561.00 26.35 - 18.35 - - - - - - - - - - 3.02 2.38 -
19-Nov-2017 12:00 - - - - - - - - - - - - 8.13 7.48 472.00 20.30 - - - - - - - - - - - - 8.69 4.25 562.00 26.42 - 19.55 - - - - - - - - - - 3.02 2.39 -
19-Nov-2017 11:45 - - - - - - - - - - - - 8.14 6.52 475.00 20.50 - - - - - - - - - - - - 8.69 3.87 563.00 26.49 - 20.81 - - - - - - - - - - 3.03 2.41 -
19-Nov-2017 11:30 - - - - - - - - - - - - 8.15 5.60 479.00 20.78 - - - - - - - - - - - - 8.69 3.46 563.00 26.49 - 22.13 - - - - - - - - - - 3.03 2.44 -
19-Nov-2017 11:15 - - - - - - - - - - - - 8.17 4.58 487.00 233.50 - - - - - - - - - - - - 8.69 3.06 557.00 26.08 - 23.52 - - - - - - - - - - 2.99 2.49 -
19-Nov-2017 11:00 - - - - - - - - - - - - 8.18 3.30 501.00 22.27 - - - - - - - - - - - - 8.68 2.65 552.00 25.74 - 23.52 - - - - - - - - - - 2.96 2.58 -
19-Nov-2017 10:45 - - - - - - - - - - - - 8.19 3.03 502.00 22.34 - - - - - - - - - - - - 8.68 2.27 549.00 25.54 - 23.52 - - - - - - - - - - 2.94 2.59 -
19-Nov-2017 10:30 - - - - - - - - - - - - 8.19 2.76 502.00 22.34 - - - - - - - - - - - - 8.68 1.91 547.00 25.40 - 22.13 - - - - - - - - - - 2.93 2.59 -
19-Nov-2017 10:15 - - - - - - - - - - - - 8.18 2.51 502.00 22.34 - - - - - - - - - - - - 8.67 1.55 547.00 25.40 - 22.13 - - - - - - - - - - 2.93 2.59 -
19-Nov-2017 10:00 - - - - - - - - - - - - 8.17 2.30 502.00 22.34 - - - - - - - - - - - - 8.67 1.20 544.00 25.20 - 22.13 - - - - - - - - - - 2.91 2.59 -
19-Nov-2017 09:45 - - - - - - - - - - - - 8.15 2.03 501.00 22.27 - - - - - - - - - - - - 8.67 0.88 539.00 24.86 - 22.13 - - - - - - - - - - 2.88 2.58 -
19-Nov-2017 09:30 - - - - - - - - - - - - 8.14 1.73 499.00 22.14 - - - - - - - - - - - - 8.66 0.62 533.00 24.45 - 22.13 - - - - - - - - - - 2.84 2.57 -
19-Nov-2017 09:15 - - - - - - - - - - - - 8.14 1.44 499.00 22.14 - - - - - - - - - - - - 8.66 0.43 529.00 24.18 - 22.13 - - - - - - - - - - 2.82 2.57 -
19-Nov-2017 09:00 - - - - - - - - - - - - 8.14 1.30 500.00 22.20 - - - - - - - - - - - - 8.66 0.29 526.00 23.97 - 20.81 - - - - - - - - - - 2.80 2.57 -
19-Nov-2017 08:45 - - - - - - - - - - - - 8.14 1.15 500.00 22.20 - - - - - - - - - - - - 8.65 0.19 525.00 23.90 - 22.13 - - - - - - - - - - 2.79 2.57 -
19-Nov-2017 08:30 - - - - - - - - - - - - 8.14 1.02 498.00 22.07 - - - - - - - - - - - - 8.65 0.13 524.00 23.84 - 22.13 - - - - - - - - - - 2.79 2.56 -
19-Nov-2017 08:15 - - - - - - - - - - - - 8.14 0.90 495.00 21.86 - - - - - - - - - - - - 8.65 0.08 524.00 23.84 - 23.52 - - - - - - - - - - 2.79 2.54 -
19-Nov-2017 08:00 - - - - - - - - - - - - - - - - - - - - - - - - - - - - 8.65 0.04 524.00 23.84 - - - - - - - - - - - - 2.79 - -
19-Nov-2017 07:45 - - - - - - - - - - - - - - - - - - - - - - - - - - - - 8.64 0.05 523.00 23.77 - - - - - - - - - - - - 2.78 - -
19-Nov-2017 07:30 - - - - - - - - - - - - - - - - - - - - - - - - - - - - 8.64 0.06 523.00 23.77 - - - - - - - - - - - - 2.78 - -
19-Nov-2017 07:15 - - - - - - - - - - - - - - - - - - - - - - - - - - - - 8.64 0.10 523.00 23.77 - - - - - - - - - - - - 2.78 - -
19-Nov-2017 07:00 - - - - - - - - - - - - - - - - - - - - - - - - - - - - 8.64 0.16 524.00 23.84 - - - - - - - - - - - - 2.79 - -
19-Nov-2017 06:45 - - - - - - - - - - - - - - - - - - - - - - - - - - - - 8.64 0.23 524.00 23.84 - - - - - - - - - - - - 2.79 - -
19-Nov-2017 06:30 - - - - - - - - - - - - - - - - - - - - - - - - - - - - 8.64 0.31 524.00 23.84 - - - - - - - - - - - - 2.79 - -
19-Nov-2017 06:15 - - - - - - - - - - - - - - - - - - - - - - - - - - - - 8.64 0.39 524.00 23.84 - - - - - - - - - - - - 2.79 - -
19-Nov-2017 06:00 - - - - - - - - - - - - - - - - - - - - - - - - - - - - 8.64 0.48 523.00 23.77 - - - - - - - - - - - - 2.78 - -
19-Nov-2017 05:45 - - - - - - - - - - - - - - - - - - - - - - - - - - - - 8.64 0.56 524.00 23.84 - - - - - - - - - - - - 2.79 - -
19-Nov-2017 05:30 - - - - - - - - - - - - - - - - - - - - - - - - - - - - 8.64 0.65 524.00 23.84 - - - - - - - - - - - - 2.79 - -
19-Nov-2017 05:15 - - - - - - - - - - - - - - - - - - - - - - - - - - - - 8.64 0.74 525.00 23.90 - - - - - - - - - - - - 2.79 - -
19-Nov-2017 05:00 - - - - - - - - - - - - - - - - - - - - - - - - - - - - 8.64 0.84 526.00 23.97 - - - - - - - - - - - - 2.80 - -
19-Nov-2017 04:45 - - - - - - - - - - - - - - - - - - - - - - - - - - - - 8.64 0.93 527.00 24.04 - - - - - - - - - - - - 2.81 - -
19-Nov-2017 04:30 - - - - - - - - - - - - - - - - - - - - - - - - - - - - 8.64 1.02 529.00 24.18 - - - - - - - - - - - - 2.82 - -
19-Nov-2017 04:15 - - - - - - - - - - - - - - - - - - - - - - - - - - - - 8.65 1.11 530.00 24.24 - - - - - - - - - - - - 2.83 - -
19-Nov-2017 04:00 - - - - - - - - - - - - - - - - - - - - - - - - - - - - 8.65 1.20 531.00 24.31 - - - - - - - - - - - - 2.83 - -
19-Nov-2017 03:45 - - - - - - - - - - - - - - - - - - - - - - - - - - - - 8.65 1.30 531.00 24.31 - - - - - - - - - - - - 2.83 - -
19-Nov-2017 03:30 - - - - - - - - - - - - - - - - - - - - - - - - - - - - 8.65 1.40 534.00 24.52 - - - - - - - - - - - - 2.85 - -
19-Nov-2017 03:15 - - - - - - - - - - - - - - - - - - - - - - - - - - - - 8.65 1.50 534.00 24.52 - - - - - - - - - - - - 2.85 - -
19-Nov-2017 03:00 - - - - - - - - - - - - - - - - - - - - - - - - - - - - 8.65 1.61 534.00 24.52 - - - - - - - - - - - - 2.85 - -
19-Nov-2017 02:45 - - - - - - - - - - - - - - - - - - - - - - - - - - - - 8.65 1.72 533.00 24.45 - - - - - - - - - - - - 2.84 - -
19-Nov-2017 02:30 - - - - - - - - - - - - - - - - - - - - - - - - - - - - 8.65 1.83 533.00 24.45 - - - - - - - - - - - - 2.84 - -
19-Nov-2017 02:15 - - - - - - - - - - - - - - - - - - - - - - - - - - - - 8.66 1.94 532.00 24.38 - - - - - - - - - - - - 2.84 - -
19-Nov-2017 02:00 - - - - - - - - - - - - - - - - - - - - - - - - - - - - 8.66 2.05 531.00 24.31 - - - - - - - - - - - - 2.83 - -
19-Nov-2017 01:45 - - - - - - - - - - - - - - - - - - - - - - - - - - - - 8.66 2.16 530.00 24.24 - - - - - - - - - - - - 2.83 - -
19-Nov-2017 01:30 - - - - - - - - - - - - - - - - - - - - - - - - - - - - 8.66 2.28 530.00 24.24 - - - - - - - - - - - - 2.83 - -
19-Nov-2017 01:15 - - - - - - - - - - - - - - - - - - - - - - - - - - - - 8.66 2.41 530.00 24.24 - - - - - - - - - - - - 2.83 - -
19-Nov-2017 01:00 - - - - - - - - - - - - - - - - - - - - - - - - - - - - 8.67 2.52 529.00 24.18 - - - - - - - - - - - - 2.82 - -
19-Nov-2017 00:45 - - - - - - - - - - - - - - - - - - - - - - - - - - - - 8.67 2.65 528.00 24.11 - - - - - - - - - - - - 2.81 - -
19-Nov-2017 00:30 - - - - - - - - - - - - - - - - - - - - - - - - - - - - 8.67 2.76 528.00 24.11 - - - - - - - - - - - - 2.81 - -
19-Nov-2017 00:15 - - - - - - - - - - - - - - - - - - - - - - - - - - - - 8.67 2.88 527.00 24.04 - - - - - - - - - - - - 2.81 - -
19-Nov-2017 00:00 - - - - - - - - - - - - - - - - - - - - - - - - - - - - 8.68 3.01 527.00 24.04 - - - - - - - - - - - - 2.81 - -
18-Nov-2017 23:45 - - - - - - - - - - - - - - - - - - - - - - - - - - - - 8.68 3.15 526.00 23.97 - - - - - - - - - - - - 2.80 - -
18-Nov-2017 23:30 - - - - - - - - - - - - - - - - - - - - - - - - - - - - 8.68 3.27 525.00 23.90 - - - - - - - - - - - - 2.79 - -
18-Nov-2017 23:15 - - - - - - - - - - - - - - - - - - - - - - - - - - - - 8.68 3.38 526.00 23.97 - - - - - - - - - - - - 2.80 - -
18-Nov-2017 23:00 - - - - - - - - - - - - - - - - - - - - - - - - - - - - 8.69 3.50 525.00 23.90 - - - - - - - - - - - - 2.79 - -
18-Nov-2017 22:45 - - - - - - - - - - - - - - - - - - - - - - - - - - - - 8.69 3.62 525.00 23.90 - - - - - - - - - - - - 2.79 - -
18-Nov-2017 22:30 - - - - - - - - - - - - - - - - - - - - - - - - - - - - 8.69 3.75 525.00 23.90 - - - - - - - - - - - - 2.79 - -
18-Nov-2017 22:15 - - - - - - - - - - - - - - - - - - - - - - - - - - - - 8.69 3.88 525.00 23.90 - - - - - - - - - - - - 2.79 - -
18-Nov-2017 22:00 - - - - - - - - - - - - - - - - - - - - - - - - - - - - 8.70 4.00 524.00 23.84 - - - - - - - - - - - - 2.79 - -
18-Nov-2017 21:45 - - - - - - - - - - - - - - - - - - - - - - - - - - - - 8.70 4.13 525.00 23.90 - - - - - - - - - - - - 2.79 - -
18-Nov-2017 21:30 - - - - - - - - - - - - - - - - - - - - - - - - - - - - 8.71 4.26 525.00 23.90 - - - - - - - - - - - - 2.79 - -
18-Nov-2017 21:15 - - - - - - - - - - - - - - - - - - - - - - - - - - - - 8.71 4.40 524.00 23.84 - - - - - - - - - - - - 2.79 - -
18-Nov-2017 21:00 - - - - - - - - - - - - - - - - - - - - - - - - - - - - 8.71 4.52 525.00 23.90 - - - - - - - - - - - - 2.79 - -
18-Nov-2017 20:45 - - - - - - - - - - - - - - - - - - - - - - - - - - - - 8.71 4.65 525.00 23.90 - - - - - - - - - - - - 2.79 - -
18-Nov-2017 20:30 - - - - - - - - - - - - - - - - - - - - - - - - - - - - 8.72 4.78 525.00 23.90 - - - - - - - - - - - - 2.79 - -
18-Nov-2017 20:15 - - - - - - - - - - - - - - - - - - - - - - - - - - - - 8.72 4.91 525.00 23.90 - - - - - - - - - - - - 2.79 - -
18-Nov-2017 20:00 - - - - - - - - - - - - 8.42 5.49 468.00 20.03 - - - - - - - - - - - - 8.72 5.04 525.00 23.90 - 29.76 - - - - - - - - - - 2.79 2.36 -
18-Nov-2017 19:45 - - - - - - - - - - - - 8.43 5.59 468.00 20.03 - - - - - - - - - - - - 8.72 5.16 526.00 23.97 - 29.76 - - - - - - - - - - 2.80 2.36 -
18-Nov-2017 19:30 - - - - - - - - - - - - 8.44 5.69 469.00 20.10 - - - - - - - - - - - - 8.73 5.29 526.00 23.97 - 31.51 - - - - - - - - - - 2.80 2.37 -
18-Nov-2017 19:15 - - - - - - - - - - - - 8.44 5.84 470.00 20.16 - - - - - - - - - - - - 8.73 5.41 527.00 24.04 - 31.51 - - - - - - - - - - 2.81 2.38 -
18-Nov-2017 19:00 - - - - - - - - - - - - - - - - - - - - - - - - - - - - 8.73 5.54 526.00 23.97 - - - - - - - - - - - - 2.80 - -
18-Nov-2017 18:45 - - - - - - - - - - - - - - - - - - - - - - - - - - - - 8.73 5.67 527.00 24.04 - - - - - - - - - - - - 2.81 - -
18-Nov-2017 18:30 - - - - - - - - - - - - - - - - - - - - - - - - - - - - 8.74 5.81 527.00 24.04 - - - - - - - - - - - - 2.81 - -
18-Nov-2017 18:15 - - - - - - - - - - - - - - - - - - - - - - - - - - - - 8.74 5.94 527.00 24.04 - - - - - - - - - - - - 2.81 - -
18-Nov-2017 18:00 - - - - - - - - - - - - 8.42 6.84 480.00 20.84 - - - - - - - - - - - - 8.74 6.08 528.00 24.11 - 35.25 - - - - - - - - - - 2.81 2.44 -
18-Nov-2017 17:45 - - - - - - - - - - - - 8.41 7.12 480.00 20.84 - - - - - - - - - - - - 8.74 6.22 528.00 24.11 - 37.24 - - - - - - - - - - 2.81 2.44 -
18-Nov-2017 17:30 - - - - - - - - - - - - 8.40 7.43 483.00 21.05 - - - - - - - - - - - - 8.75 6.36 529.00 24.18 - 37.24 - - - - - - - - - - 2.82 2.46 -
18-Nov-2017 17:15 - - - - - - - - - - - - 8.39 7.77 483.00 21.05 - - - - - - - - - - - - 8.74 6.50 530.00 24.24 - 39.32 - - - - - - - - - - 2.83 2.46 -
18-Nov-2017 17:00 - - - - - - - - - - - - 8.37 8.13 485.00 21.18 - - - - - - - - - - - - 8.75 6.64 530.00 24.24 - 39.32 - - - - - - - - - - 2.83 2.48 -
18-Nov-2017 16:45 - - - - - - - - - - - - 8.37 8.51 485.00 21.18 - - - - - - - - - - - - 8.75 6.77 529.00 24.18 - 39.32 - - - - - - - - - - 2.82 2.48 -
18-Nov-2017 16:30 - - - - - - - - - - - - 8.35 8.91 485.00 21.18 - - - - - - - - - - - - 8.75 6.91 529.00 24.18 - 39.32 - - - - - - - - - - 2.82 2.48 -
18-Nov-2017 16:15 - - - - - - - - - - - - 8.33 9.26 485.00 21.18 - - - - - - - - - - - - 8.75 7.08 530.00 0.00 - 41.50 - - - - - - - - - - 2.83 2.48 -
18-Nov-2017 16:00 - - - - - - - - - - - - 8.31 9.57 485.00 21.18 - - - - - - - - - - - - 8.75 7.26 530.00 24.24 - 41.50 - - - - - - - - - - 2.83 2.48 -
18-Nov-2017 15:45 - - - - - - - - - - - - 8.27 9.84 485.00 21.18 - - - - - - - - - - - - 8.75 7.45 530.00 24.24 - 41.50 - - - - - - - - - - 2.83 2.48 -
18-Nov-2017 15:30 - - - - - - - - - - - - 8.23 10.09 485.00 21.18 - - - - - - - - - - - - 8.74 7.61 531.00 24.31 - 41.50 - - - - - - - - - - 2.83 2.48 -
18-Nov-2017 15:15 - - - - - - - - - - - - 8.24 10.33 483.00 21.05 - - - - - - - - - - - - 8.74 7.75 532.00 24.38 - 41.50 - - - - - - - - - - 2.84 2.46 -
18-Nov-2017 15:00 - - - - - - - - - - - - 8.24 10.53 483.00 21.05 - - - - - - - - - - - - 8.73 7.85 532.00 24.38 - 43.76 - - - - - - - - - - 2.84 2.46 -
18-Nov-2017 14:45 - - - - - - - - - - - - 8.25 10.68 483.00 21.05 - - - - - - - - - - - - 8.73 7.92 533.00 24.45 - 41.50 - - - - - - - - - - 2.84 2.46 -
18-Nov-2017 14:30 - - - - - - - - - - - - 8.25 10.77 481.00 20.91 - - - - - - - - - - - - 8.72 7.96 532.00 24.38 - 41.50 - - - - - - - - - - 2.84 2.45 -
18-Nov-2017 14:15 - - - - - - - - - - - - 8.25 10.83 481.00 20.91 - - - - - - - - - - - - 8.72 7.94 533.00 24.45 - 41.50 - - - - - - - - - - 2.84 2.45 -
18-Nov-2017 14:00 - - - - - - - - - - - - 8.25 10.84 480.00 20.84 - - - - - - - - - - - - 8.72 7.88 533.00 24.45 - 43.76 - - - - - - - - - - 2.84 2.44 -
18-Nov-2017 13:45 - - - - - - - - - - - - 8.25 10.80 479.00 20.78 - - - - - - - - - - - - 8.71 7.77 533.00 24.45 - 41.50 - - - - - - - - - - 2.84 2.44 -
18-Nov-2017 13:30 - - - - - - - - - - - - 8.25 10.73 478.00 20.71 - - - - - - - - - - - - 8.71 7.63 533.00 24.45 - 41.50 - - - - - - - - - - 2.84 2.43 -
18-Nov-2017 13:15 - - - - - - - - - - - - 8.25 10.62 477.00 20.64 - - - - - - - - - - - - 8.71 7.46 534.00 24.52 - 41.50 - - - - - - - - - - 2.85 2.42 -
18-Nov-2017 13:00 - - - - - - - - - - - - - - - - - - - - - - - - - - - - 8.71 7.28 533.00 24.45 - - - - - - - - - - - - 2.84 - -
18-Nov-2017 12:45 - - - - - - - - - - - - - - - - - - - - - - - - - - - - 8.71 7.07 533.00 24.45 - - - - - - - - - - - - 2.84 - -
18-Nov-2017 12:30 - - - - - - - - - - - - - - - - - - - - - - - - - - - - 8.70 6.85 533.00 24.45 - - - - - - - - - - - - 2.84 - -
18-Nov-2017 12:15 - - - - - - - - - - - - - - - - - - - - - - - - - - - - 8.71 6.60 534.00 24.52 - - - - - - - - - - - - 2.85 - -
18-Nov-2017 12:00 - - - - - - - - - - - - 8.25 9.44 475.00 20.50 - - - - - - - - - - - - 8.71 6.37 534.00 24.52 - 41.50 - - - - - - - - - - 2.85 2.41 -
18-Nov-2017 11:45 - - - - - - - - - - - - 8.26 9.09 475.00 20.50 - - - - - - - - - - - - 8.71 6.09 534.00 24.52 - 41.50 - - - - - - - - - - 2.85 2.41 -
18-Nov-2017 11:30 - - - - - - - - - - - - 8.27 8.71 476.00 20.57 - - - - - - - - - - - - 8.70 5.82 534.00 24.52 - 41.50 - - - - - - - - - - 2.85 2.42 -
18-Nov-2017 11:15 - - - - - - - - - - - - 8.27 8.29 475.00 20.50 - - - - - - - - - - - - 8.70 5.53 534.00 24.52 - 41.50 - - - - - - - - - - 2.85 2.41 -
18-Nov-2017 11:00 - - - - - - - - - - - - - - - - - - - - - - - - - - - - 8.70 5.24 534.00 24.52 - - - - - - - - - - - - 2.85 - -
18-Nov-2017 10:45 - - - - - - - - - - - - - - - - - - - - - - - - - - - - 8.71 4.96 534.00 24.52 - - - - - - - - - - - - 2.85 - -
18-Nov-2017 10:30 - - - - - - - - - - - - - - - - - - - - - - - - - - - - 8.70 4.68 534.00 24.52 - - - - - - - - - - - - 2.85 - -
18-Nov-2017 10:15 - - - - - - - - - - - - - - - - - - - - - - - - - - - - 8.70 4.41 534.00 24.52 - - - - - - - - - - - - 2.85 - -
18-Nov-2017 10:00 - - - - - - - - - - - - - - - - - - - - - - - - - - - - 8.70 4.12 533.00 24.45 - - - - - - - - - - - - 2.84 - -
18-Nov-2017 09:45 - - - - - - - - - - - - - - - - - - - - - - - - - - - - 8.69 3.85 534.00 24.52 - - - - - - - - - - - - 2.85 - -
18-Nov-2017 09:30 - - - - - - - - - - - - - - - - - - - - - - - - - - - - 8.69 3.63 533.00 24.45 - - - - - - - - - - - - 2.84 - -
18-Nov-2017 09:15 - - - - - - - - - - - - - - - - - - - - - - - - - - - - 8.69 3.50 533.00 24.45 - - - - - - - - - - - - 2.84 - -
18-Nov-2017 09:00 - - - - - - - - - - - - - - - - - - - - - - - - - - - - 8.68 3.44 533.00 24.45 - - - - - - - - - - - - 2.84 - -
18-Nov-2017 08:45 - - - - - - - - - - - - - - - - - - - - - - - - - - - - 8.68 3.42 533.00 24.45 - - - - - - - - - - - - 2.84 - -
18-Nov-2017 08:30 - - - - - - - - - - - - - - - - - - - - - - - - - - - - 8.67 3.43 533.00 24.45 - - - - - - - - - - - - 2.84 - -
18-Nov-2017 08:15 - - - - - - - - - - - - - - - - - - - - - - - - - - - - 8.67 3.44 533.00 24.45 - - - - - - - - - - - - 2.84 - -
18-Nov-2017 08:00 - - - - - - - - - - - - - - - - - - - - - - - - - - - - 8.67 3.44 533.00 24.45 - - - - - - - - - - - - 2.84 - -
18-Nov-2017 07:45 - - - - - - - - - - - - - - - - - - - - - - - - - - - - 8.66 3.45 534.00 24.52 - - - - - - - - - - - - 2.85 - -
18-Nov-2017 07:30 - - - - - - - - - - - - - - - - - - - - - - - - - - - - 8.66 3.50 534.00 24.52 - - - - - - - - - - - - 2.85 - -
18-Nov-2017 07:15 - - - - - - - - - - - - - - - - - - - - - - - - - - - - 8.66 3.57 535.00 24.58 - - - - - - - - - - - - 2.86 - -
18-Nov-2017 07:00 - - - - - - - - - - - - - - - - - - - - - - - - - - - - 8.66 3.64 535.00 24.58 - - - - - - - - - - - - 2.86 - -
18-Nov-2017 06:45 - - - - - - - - - - - - - - - - - - - - - - - - - - - - 8.66 3.73 535.00 24.58 - - - - - - - - - - - - 2.86 - -
18-Nov-2017 06:30 - - - - - - - - - - - - - - - - - - - - - - - - - - - - 8.66 3.85 535.00 24.58 - - - - - - - - - - - - 2.86 - -
18-Nov-2017 06:15 - - - - - - - - - - - - - - - - - - - - - - - - - - - - 8.66 3.99 535.00 24.58 - - - - - - - - - - - - 2.86 - -
18-Nov-2017 06:00 - - - - - - - - - - - - - - - - - - - - - - - - - - - - 8.66 4.12 536.00 24.65 - - - - - - - - - - - - 2.86 - -
18-Nov-2017 05:45 - - - - - - - - - - - - - - - - - - - - - - - - - - - - 8.66 4.23 535.00 24.58 - - - - - - - - - - - - 2.86 - -
18-Nov-2017 05:30 - - - - - - - - - - - - - - - - - - - - - - - - - - - - 8.66 4.31 535.00 24.58 - - - - - - - - - - - - 2.86 - -
18-Nov-2017 05:15 - - - - - - - - - - - - - - - - - - - - - - - - - - - - 8.66 4.40 534.00 24.52 - - - - - - - - - - - - 2.85 - -
18-Nov-2017 05:00 - - - - - - - - - - - - - - - - - - - - - - - - - - - - 8.66 4.50 535.00 24.58 - - - - - - - - - - - - 2.86 - -
18-Nov-2017 04:45 - - - - - - - - - - - - - - - - - - - - - - - - - - - - 8.66 4.61 535.00 24.58 - - - - - - - - - - - - 2.86 - -
18-Nov-2017 04:30 - - - - - - - - - - - - - - - - - - - - - - - - - - - - 8.66 4.72 535.00 24.58 - - - - - - - - - - - - 2.86 - -
18-Nov-2017 04:15 - - - - - - - - - - - - - - - - - - - - - - - - - - - - 8.66 4.82 535.00 24.58 - - - - - - - - - - - - 2.86 - -
18-Nov-2017 04:00 - - - - - - - - - - - - - - - - - - - - - - - - - - - - 8.66 5.03 536.00 24.65 - - - - - - - - - - - - 2.86 - -
18-Nov-2017 03:45 - - - - - - - - - - - - - - - - - - - - - - - - - - - - 8.66 5.11 536.00 24.65 - - - - - - - - - - - - 2.86 - -
18-Nov-2017 03:30 - - - - - - - - - - - - - - - - - - - - - - - - - - - - 8.67 5.21 535.00 24.58 - - - - - - - - - - - - 2.86 - -
18-Nov-2017 03:15 - - - - - - - - - - - - - - - - - - - - - - - - - - - - 8.67 5.32 536.00 24.65 - - - - - - - - - - - - 2.86 - -
18-Nov-2017 03:00 - - - - - - - - - - - - - - - - - - - - - - - - - - - - 8.67 5.38 535.00 24.58 - - - - - - - - - - - - 2.86 - -
18-Nov-2017 02:45 - - - - - - - - - - - - - - - - - - - - - - - - - - - - 8.67 5.42 535.00 24.58 - - - - - - - - - - - - 2.86 - -
18-Nov-2017 02:30 - - - - - - - - - - - - - - - - - - - - - - - - - - - - 8.67 5.47 535.00 24.58 - - - - - - - - - - - - 2.86 - -
18-Nov-2017 02:15 - - - - - - - - - - - - - - - - - - - - - - - - - - - - 8.67 5.51 535.00 24.58 - - - - - - - - - - - - 2.86 - -
18-Nov-2017 02:00 - - - - - - - - - - - - - - - - - - - - - - - - - - - - 8.68 5.62 535.00 24.58 - - - - - - - - - - - - 2.86 - -
18-Nov-2017 01:45 - - - - - - - - - - - - - - - - - - - - - - - - - - - - 8.68 5.66 536.00 24.65 - - - - - - - - - - - - 2.86 - -
18-Nov-2017 01:30 - - - - - - - - - - - - - - - - - - - - - - - - - - - - 8.68 5.76 535.00 24.58 - - - - - - - - - - - - 2.86 - -
18-Nov-2017 01:15 - - - - - - - - - - - - - - - - - - - - - - - - - - - - 8.69 5.86 535.00 24.58 - - - - - - - - - - - - 2.86 - -
18-Nov-2017 01:00 - - - - - - - - - - - - - - - - - - - - - - - - - - - - 8.69 5.95 535.00 24.58 - - - - - - - - - - - - 2.86 - -
18-Nov-2017 00:45 - - - - - - - - - - - - - - - - - - - - - - - - - - - - 8.69 6.12 536.00 24.65 - - - - - - - - - - - - 2.86 - -
18-Nov-2017 00:30 - - - - - - - - - - - - - - - - - - - - - - - - - - - - 8.70 6.29 536.00 24.65 - - - - - - - - - - - - 2.86 - -
18-Nov-2017 00:15 - - - - - - - - - - - - - - - - - - - - - - - - - - - - 8.70 6.44 537.00 24.72 - - - - - - - - - - - - 2.87 - -
18-Nov-2017 00:00 - - - - - - - - - - - - - - - - - - - - - - - - - - - - 8.70 6.52 536.00 24.65 - - - - - - - - - - - - 2.86 - -
17-Nov-2017 23:45 - - - - - - - - - - - - - - - - - - - - - - - - - - - - 8.70 6.61 536.00 24.65 - - - - - - - - - - - - 2.86 - -
17-Nov-2017 23:30 - - - - - - - - - - - - - - - - - - - - - - - - - - - - 8.71 6.67 536.00 24.65 - - - - - - - - - - - - 2.86 - -
17-Nov-2017 23:15 - - - - - - - - - - - - - - - - - - - - - - - - - - - - 8.71 6.74 536.00 24.65 - - - - - - - - - - - - 2.86 - -
17-Nov-2017 23:00 - - - - - - - - - - - - - - - - - - - - - - - - - - - - 8.71 6.79 536.00 24.65 - - - - - - - - - - - - 2.86 - -
17-Nov-2017 22:45 - - - - - - - - - - - - - - - - - - - - - - - - - - - - 8.71 6.87 536.00 24.65 - - - - - - - - - - - - 2.86 - -
17-Nov-2017 22:30 - - - - - - - - - - - - - - - - - - - - - - - - - - - - 8.71 6.95 536.00 24.65 - - - - - - - - - - - - 2.86 - -
17-Nov-2017 22:15 - - - - - - - - - - - - - - - - - - - - - - - - - - - - 8.72 7.04 536.00 24.65 - - - - - - - - - - - - 2.86 - -
17-Nov-2017 22:00 - - - - - - - - - - - - - - - - - - - - - - - - - - - - 8.72 7.13 537.00 24.72 - - - - - - - - - - - - 2.87 - -
17-Nov-2017 21:45 - - - - - - - - - - - - - - - - - - - - - - - - - - - - 8.72 7.22 537.00 24.72 - - - - - - - - - - - - 2.87 - -
17-Nov-2017 21:30 - - - - - - - - - - - - - - - - - - - - - - - - - - - - 8.72 7.34 537.00 24.72 - - - - - - - - - - - - 2.87 - -
17-Nov-2017 21:15 - - - - - - - - - - - - - - - - - - - - - - - - - - - - 8.73 7.44 537.00 24.72 - - - - - - - - - - - - 2.87 - -
17-Nov-2017 21:00 - - - - - - - - - - - - - - - - - - - - - - - - - - - - 8.73 7.57 537.00 24.72 - - - - - - - - - - - - 2.87 - -
17-Nov-2017 20:45 - - - - - - - - - - - - - - - - - - - - - - - - - - - - 8.74 7.69 538.00 24.79 - - - - - - - - - - - - 2.88 - -
17-Nov-2017 20:30 - - - - - - - - - - - - - - - - - - - - - - - - - - - - 8.73 7.81 538.00 24.79 - - - - - - - - - - - - 2.88 - -
17-Nov-2017 20:15 - - - - - - - - - - - - - - - - - - - - - - - - - - - - 8.74 7.95 538.00 24.79 - - - - - - - - - - - - 2.88 - -
17-Nov-2017 20:00 - - - - - - - - - - - - - - - - - - - - - - - - - - - - 8.74 8.08 538.00 0.00 - - - - - - - - - - - - 2.88 - -
17-Nov-2017 19:45 - - - - - - - - - - - - - - - - - - - - - - - - - - - - 8.74 8.21 538.00 24.79 - - - - - - - - - - - - 2.88 - -
17-Nov-2017 19:30 - - - - - - - - - - - - - - - - - - - - - - - - - - - - 8.74 8.34 539.00 24.86 - - - - - - - - - - - - 2.88 - -
17-Nov-2017 19:15 - - - - - - - - - - - - - - - - - - - - - - - - - - - - 8.75 8.48 539.00 24.86 - - - - - - - - - - - - 2.88 - -
17-Nov-2017 19:00 - - - - - - - - - - - - - - - - - - - - - - - - - - - - 8.75 8.61 539.00 24.86 - - - - - - - - - - - - 2.88 - -
17-Nov-2017 18:45 - - - - - - - - - - - - - - - - - - - - - - - - - - - - 8.75 8.76 539.00 24.86 - - - - - - - - - - - - 2.88 - -
17-Nov-2017 18:30 - - - - - - - - - - - - - - - - - - - - - - - - - - - - 8.75 8.91 540.00 24.92 - - - - - - - - - - - - 2.89 - -
17-Nov-2017 18:15 - - - - - - - - - - - - - - - - - - - - - - - - - - - - 8.76 9.06 540.00 24.92 - - - - - - - - - - - - 2.89 - -
17-Nov-2017 18:00 - - - - - - - - - - - - - - - - - - - - - - - - - - - - 8.76 9.22 540.00 24.92 - - - - - - - - - - - - 2.89 - -
17-Nov-2017 17:45 - - - - - - - - - - - - - - - - - - - - - - - - - - - - 8.76 9.37 540.00 24.92 - - - - - - - - - - - - 2.89 - -
17-Nov-2017 17:30 - - - - - - - - - - - - - - - - - - - - - - - - - - - - 8.76 9.53 540.00 24.92 - - - - - - - - - - - - 2.89 - -
17-Nov-2017 17:15 - - - - - - - - - - - - - - - - - - - - - - - - - - - - 8.77 9.70 541.00 24.99 - - - - - - - - - - - - 2.89 - -
17-Nov-2017 17:00 - - - - - - - - - - - - - - - - - - - - - - - - - - - - 8.76 9.86 540.00 24.92 - - - - - - - - - - - - 2.89 - -
17-Nov-2017 16:45 - - - - - - - - - - - - - - - - - - - - - - - - - - - - 8.76 10.03 540.00 24.92 - - - - - - - - - - - - 2.89 - -
17-Nov-2017 16:30 - - - - - - - - - - - - - - - - - - - - - - - - - - - - 8.77 10.20 540.00 24.92 - - - - - - - - - - - - 2.89 - -
17-Nov-2017 16:15 - - - - - - - - - - - - - - - - - - - - - - - - - - - - 8.77 10.40 540.00 24.92 - - - - - - - - - - - - 2.89 - -
17-Nov-2017 16:00 - - - - - - - - - - - - 8.44 11.48 483.00 21.05 - - - - - - - - - - - - 8.77 10.54 541.00 24.99 - 33.34 - - - - - - - - - - 2.89 2.46 -
17-Nov-2017 15:45 - - - - - - - - - - - - 8.43 11.84 483.00 21.05 - - - - - - - - - - - - 8.76 10.70 541.00 24.99 - 35.25 - - - - - - - - - - 2.89 2.46 -
17-Nov-2017 15:30 - - - - - - - - - - - - 8.39 12.28 483.00 21.05 - - - - - - - - - - - - 8.76 10.79 541.00 24.99 - 33.34 - - - - - - - - - - 2.89 2.46 -
17-Nov-2017 15:15 - - - - - - - - - - - - 8.35 12.72 482.00 20.98 - - - - - - - - - - - - 8.75 10.93 542.00 25.06 - 35.25 - - - - - - - - - - 2.90 2.46 -
17-Nov-2017 15:00 - - - - - - - - - - - - 8.29 13.10 483.00 21.05 - - - - - - - - - - - - 8.75 10.99 541.00 24.99 - 35.25 - - - - - - - - - - 2.89 2.46 -
17-Nov-2017 14:45 - - - - - - - - - - - - 8.29 13.43 484.00 21.12 - - - - - - - - - - - - 8.75 11.05 541.00 24.99 - 33.34 - - - - - - - - - - 2.89 2.47 -
17-Nov-2017 14:30 - - - - - - - - - - - - 8.30 13.61 484.00 21.12 - - - - - - - - - - - - 8.74 10.97 542.00 25.06 - 33.34 - - - - - - - - - - 2.90 2.47 -
17-Nov-2017 14:15 - - - - - - - - - - - - 8.30 13.68 482.00 20.98 - - - - - - - - - - - - 8.74 10.87 542.00 25.06 - 35.25 - - - - - - - - - - 2.90 2.46 -
17-Nov-2017 14:00 - - - - - - - - - - - - 8.28 13.51 483.00 21.05 - - - - - - - - - - - - 8.73 10.80 542.00 25.06 - 33.34 - - - - - - - - - - 2.90 2.46 -
17-Nov-2017 13:45 - - - - - - - - - - - - 8.28 13.41 483.00 21.05 - - - - - - - - - - - - 8.73 10.74 542.00 25.06 - 33.34 - - - - - - - - - - 2.90 2.46 -
17-Nov-2017 13:30 - - - - - - - - - - - - 8.28 13.56 481.00 20.91 - - - - - - - - - - - - 8.73 10.65 542.00 25.06 - 35.25 - - - - - - - - - - 2.90 2.45 -
17-Nov-2017 13:15 - - - - - - - - - - - - 8.28 13.87 483.00 21.05 - - - - - - - - - - - - 8.73 10.76 543.00 25.13 - 35.25 - - - - - - - - - - 2.91 2.46 -
17-Nov-2017 13:00 - - - - - - - - - - - - 8.27 14.02 481.00 20.91 - - - - - - - - - - - - 8.72 10.78 543.00 25.13 - 35.25 - - - - - - - - - - 2.91 2.45 -
17-Nov-2017 12:45 - - - - - - - - - - - - 8.26 13.79 480.00 20.84 - - - - - - - - - - - - 8.72 10.47 542.00 25.06 - 35.25 - - - - - - - - - - 2.90 2.44 -
17-Nov-2017 12:30 - - - - - - - - - - - - 8.26 13.65 480.00 20.84 - - - - - - - - - - - - 8.72 10.21 542.00 25.06 - 35.25 - - - - - - - - - -